Data for 04/13/2012

Time Sea-Level Adjusted Pressure Absolute Pressure Temperature Relative Humidity Dew Point Precipitation   
(mb) (inHg) (mb) (inHg) (C) (F) (%) (C) (F) (mm) (in)
00:01 1011 29.85 841 24.83 2.5 36.5 82 -0.2 31.7 0 0
00:02 1011 29.85 841 24.83 2.5 36.5 83 -0.1 31.7 0 0
00:03 1011 29.85 841 24.83 2.5 36.5 83 -0.2 31.7 0 0
00:04 1011 29.85 841 24.83 2.5 36.4 83 -0.1 31.7 0 0
00:05 1011 29.85 841 24.83 2.3 36.2 84 -0.2 31.7 0 0
00:06 1011 29.85 841 24.83 2.2 36 84 -0.2 31.7 0 0
00:07 1011 29.85 841 24.83 2 35.6 85 -0.2 31.6 0 0
00:08 1011 29.85 841 24.83 1.9 35.4 86 -0.3 31.5 0 0
00:09 1011 29.85 841 24.83 1.8 35.2 86 -0.2 31.6 0 0
00:10 1011 29.85 841 24.83 1.8 35.2 87 -0.2 31.6 0 0
00:11 1011 29.85 841 24.83 1.8 35.3 87 -0.1 31.8 0 0
00:12 1011 29.85 841 24.83 1.9 35.3 87 -0.1 31.8 0 0
00:13 1011 29.85 841 24.83 1.9 35.4 86 -0.2 31.7 0 0
00:14 1011 29.85 841 24.83 1.9 35.4 87 -0.1 31.8 0 0
00:15 1011 29.85 841 24.83 1.9 35.3 87 -0.1 31.8 0 0
00:16 1011 29.85 841 24.83 1.9 35.4 87 -0.1 31.8 0 0
00:17 1012 29.88 841 24.83 1.8 35.2 87 -0.2 31.6 0 0
00:18 1011 29.85 841 24.83 1.7 35 87 -0.3 31.5 0 0
00:19 1011 29.85 841 24.83 1.5 34.7 88 -0.3 31.5 0 0
00:20 1011 29.85 841 24.83 1.5 34.6 88 -0.3 31.5 0 0
00:21 1011 29.85 841 24.83 1.4 34.6 88 -0.3 31.5 0 0
00:22 1011 29.85 841 24.83 1.4 34.5 89 -0.3 31.4 0 0
00:23 1011 29.85 841 24.83 1.4 34.5 89 -0.3 31.4 0 0
00:24 1011 29.85 841 24.83 1.4 34.5 89 -0.3 31.5 0 0
00:25 1011 29.85 841 24.83 1.4 34.5 89 -0.3 31.5 0 0
00:26 1011 29.85 841 24.83 1.4 34.6 89 -0.2 31.6 0 0
00:27 1011 29.85 841 24.83 1.5 34.7 89 -0.2 31.7 0 0
00:28 1011 29.85 841 24.83 1.6 34.9 88 -0.1 31.8 0 0
00:29 1011 29.85 841 24.83 1.6 35 88 -0.1 31.8 0 0
00:30 1011 29.85 841 24.83 1.6 35 88 -0.1 31.8 0 0
00:31 1011 29.85 841 24.83 1.7 35 88 -0.1 31.8 0 0
00:32 1011 29.85 841 24.83 1.8 35.2 87 -0.1 31.8 0 0
00:33 1011 29.85 841 24.83 1.8 35.2 87 -0.1 31.7 0 0
00:34 1011 29.85 841 24.83 1.7 35.1 87 -0.2 31.7 0 0
00:35 1012 29.88 841 24.83 1.7 35 88 -0.2 31.7 0 0
00:36 1012 29.88 841 24.83 1.7 35 88 -0.2 31.7 0 0
00:37 1012 29.88 841 24.83 1.6 34.9 88 -0.2 31.6 0 0
00:38 1012 29.88 841 24.83 1.6 35 87 -0.2 31.6 0 0
00:39 1012 29.88 841 24.83 1.6 34.9 88 -0.2 31.6 0 0
00:40 1012 29.88 841 24.83 1.6 34.9 87 -0.2 31.6 0 0
00:41 1012 29.88 841 24.83 1.6 34.9 87 -0.3 31.5 0 0
00:42 1012 29.88 841 24.83 1.6 34.9 87 -0.3 31.4 0 0
00:43 1012 29.88 841 24.83 1.7 35 87 -0.3 31.5 0 0
00:44 1012 29.88 841 24.83 1.7 35.1 86 -0.4 31.3 0 0
00:45 1012 29.88 841 24.83 1.6 34.8 86 -0.5 31.1 0 0
00:46 1012 29.88 841 24.83 1.5 34.8 87 -0.5 31.1 0 0
00:47 1012 29.88 841 24.83 1.5 34.8 87 -0.4 31.2 0 0
00:48 1012 29.88 841 24.83 1.6 34.8 86 -0.5 31.2 0 0
00:49 1012 29.88 841 24.83 1.5 34.8 87 -0.4 31.2 0 0
00:50 1012 29.88 841 24.83 1.6 34.8 86 -0.5 31.2 0 0
00:51 1012 29.88 841 24.83 1.6 34.9 86 -0.4 31.3 0 0
00:52 1012 29.88 841 24.83 1.6 34.8 86 -0.5 31.1 0 0
00:53 1012 29.88 841 24.83 1.5 34.7 87 -0.5 31.2 0 0
00:54 1012 29.88 841 24.83 1.5 34.7 87 -0.5 31.1 0 0
00:55 1012 29.88 841 24.83 1.5 34.7 86 -0.5 31 0 0
00:56 1012 29.88 841 24.83 1.5 34.6 86 -0.6 31 0 0
00:57 1012 29.88 841 24.83 1.4 34.4 87 -0.7 30.8 0 0
00:58 1012 29.88 841 24.83 1.3 34.3 88 -0.5 31 0 0
00:59 1012 29.88 841 24.83 1.3 34.3 88 -0.4 31.2 0 0
01:00 1012 29.88 841 24.83 1.2 34.2 88 -0.6 31 0 0
01:01 1012 29.88 841 24.83 1.1 34 88 -0.7 30.8 0 0
01:02 1012 29.88 841 24.83 1 33.8 88 -0.8 30.6 0 0
01:03 1012 29.88 841 24.83 0.9 33.7 89 -0.7 30.8 0 0
01:04 1012 29.88 841 24.83 0.8 33.4 89 -0.8 30.6 0 0
01:05 1012 29.88 841 24.83 0.8 33.4 90 -0.6 30.9 0 0
01:06 1012 29.88 841 24.83 0.8 33.4 90 -0.6 30.9 0 0
01:07 1012 29.88 841 24.83 0.8 33.4 91 -0.6 31 0 0
01:08 1012 29.88 841 24.83 0.8 33.4 90 -0.7 30.8 0 0
01:09 1012 29.88 841 24.83 0.7 33.3 90 -0.7 30.8 0 0
01:10 1012 29.88 841 24.83 0.7 33.3 90 -0.8 30.6 0 0
01:11 1012 29.88 841 24.83 0.6 33.1 88 -1.2 29.9 0 0
01:12 1012 29.88 841 24.83 0.5 32.8 91 -0.9 30.4 0 0
01:13 1012 29.88 841 24.83 0.6 33 93 -0.5 31.2 0 0
01:14 1012 29.88 841 24.83 0.8 33.4 92 -0.3 31.4 0 0
01:15 1012 29.88 841 24.83 1 33.8 91 -0.3 31.4 0 0
01:16 1012 29.88 841 24.83 1 33.9 90 -0.4 31.2 0 0
01:17 1012 29.88 841 24.83 1.1 34 89 -0.6 31 0 0
01:18 1012 29.88 841 24.83 1.1 33.9 89 -0.5 31 0 0
01:19 1012 29.88 841 24.83 1.1 33.9 89 -0.5 31.1 0 0
01:20 1012 29.88 841 24.83 1.1 34 89 -0.5 31.1 0 0
01:21 1012 29.88 841 24.83 1.1 34 89 -0.5 31 0 0
01:22 1012 29.88 841 24.83 1.1 33.9 89 -0.6 30.9 0 0
01:23 1012 29.88 841 24.83 1.1 34 88 -0.6 30.9 0 0
01:24 1012 29.88 841 24.83 1 33.8 86 -1 30.1 0 0
01:25 1012 29.88 841 24.83 0.8 33.5 88 -1 30.2 0 0
01:26 1012 29.88 841 24.83 0.8 33.4 89 -0.9 30.4 0 0
01:27 1012 29.88 841 24.83 0.8 33.4 88 -1 30.1 0 0
01:28 1012 29.88 841 24.83 0.7 33.2 87 -1.2 29.9 0 0
01:29 1012 29.88 841 24.83 0.6 33.1 89 -1 30.2 0 0
01:30 1012 29.88 841 24.83 0.6 33.1 89 -1 30.3 0 0
01:31 1012 29.88 841 24.83 0.6 33.1 90 -0.9 30.5 0 0
01:32 1012 29.88 841 24.83 0.6 33.1 90 -0.8 30.6 0 0
01:33 1012 29.88 841 24.83 0.7 33.3 91 -0.6 30.9 0 0
01:34 1012 29.88 841 24.83 0.8 33.5 91 -0.5 31.1 0 0
01:35 1012 29.88 841 24.83 0.9 33.6 91 -0.4 31.3 0 0
01:36 1012 29.88 841 24.83 0.9 33.6 91 -0.4 31.2 0 0
01:37 1012 29.88 841 24.83 0.9 33.7 91 -0.3 31.4 0 0
01:38 1012 29.88 841 24.83 1 33.9 91 -0.3 31.5 0 0
01:39 1012 29.88 841 24.83 1.1 34.1 90 -0.3 31.5 0 0
01:40 1012 29.88 841 24.83 1.2 34.2 89 -0.4 31.3 0 0
01:41 1012 29.88 841 24.83 1.2 34.2 89 -0.5 31.1 0 0
01:42 1012 29.88 841 24.83 1.2 34.1 88 -0.6 30.8 0 0
01:43 1012 29.88 841 24.83 1.1 34 87 -0.8 30.6 0 0
01:44 1012 29.88 841 24.83 1 33.8 87 -0.9 30.4 0 0
01:45 1012 29.88 841 24.83 0.9 33.7 87 -1 30.3 0 0
01:46 1012 29.88 841 24.83 0.8 33.4 86 -1.2 29.8 0 0
01:47 1012 29.88 841 24.83 0.6 33 89 -1.1 30 0 0
01:48 1012 29.88 841 24.83 0.5 32.9 91 -0.8 30.5 0 0
01:49 1012 29.88 841 24.83 0.5 32.9 91 -0.8 30.6 0 0
01:50 1012 29.88 841 24.83 0.6 33 91 -0.8 30.6 0 0
01:51 1012 29.88 841 24.83 0.7 33.2 91 -0.7 30.7 0 0
01:52 1012 29.88 841 24.83 0.7 33.3 91 -0.7 30.8 0 0
01:53 1012 29.88 841 24.83 0.7 33.3 91 -0.7 30.8 0 0
01:54 1012 29.88 841 24.83 0.7 33.3 90 -0.7 30.8 0 0
01:55 1012 29.88 841 24.83 0.8 33.4 90 -0.6 30.9 0 0
01:56 1012 29.88 841 24.83 0.8 33.5 90 -0.6 30.9 0 0
01:57 1012 29.88 841 24.83 0.9 33.6 90 -0.6 30.9 0 0
01:58 1012 29.88 841 24.83 0.8 33.5 88 -0.9 30.4 0 0
01:59 1012 29.88 841 24.83 0.7 33.3 89 -0.8 30.5 0 0
02:00 1012 29.88 841 24.83 0.7 33.3 90 -0.8 30.6 0 0
02:01 1012 29.88 841 24.83 0.7 33.2 90 -0.8 30.6 0 0
02:02 1012 29.88 841 24.83 0.6 33.1 90 -0.9 30.4 0 0
02:03 1012 29.88 841 24.83 0.6 33 90 -1 30.3 0 0
02:04 1012 29.88 841 24.83 0.4 32.8 88 -1.4 29.5 0 0
02:05 1012 29.88 841 24.83 0.1 32.3 87 -1.7 28.9 0 0
02:06 1012 29.88 841 24.83 -0.1 31.9 91 -1.4 29.5 0 0
02:07 1012 29.88 841 24.83 -0.1 31.9 89 -1.6 29.1 0 0
02:08 1012 29.88 841 24.83 -0.1 31.7 91 -1.4 29.5 0 0
02:09 1012 29.88 841 24.83 -0.2 31.7 92 -1.4 29.6 0 0
02:10 1012 29.88 841 24.83 -0.1 31.8 91 -1.4 29.5 0 0
02:11 1012 29.88 841 24.83 -0.1 31.8 91 -1.3 29.6 0 0
02:12 1012 29.88 841 24.83 -0.1 31.8 91 -1.4 29.4 0 0
02:13 1012 29.88 841 24.83 -0.2 31.7 90 -1.6 29.1 0 0
02:14 1012 29.88 841 24.83 -0.3 31.4 90 -1.8 28.7 0 0
02:15 1012 29.88 841 24.83 -0.3 31.4 92 -1.4 29.4 0 0
02:16 1012 29.88 841 24.83 -0.2 31.6 93 -1.3 29.7 0 0
02:17 1012 29.88 841 24.83 -0.1 31.8 92 -1.3 29.7 0 0
02:18 1012 29.88 841 24.83 -0.2 31.6 90 -1.7 28.9 0 0
02:19 1012 29.88 841 24.83 -0.3 31.4 92 -1.5 29.3 0 0
02:20 1012 29.88 841 24.83 -0.3 31.5 93 -1.3 29.6 0 0
02:21 1012 29.88 841 24.83 -0.3 31.5 90 -1.7 29 0 0
02:22 1012 29.88 841 24.83 -0.4 31.3 91 -1.7 28.9 0 0
02:23 1012 29.88 841 24.83 -0.5 31.1 91 -1.8 28.8 0 0
02:24 1012 29.88 841 24.83 -0.6 31 92 -1.8 28.8 0 0
02:25 1012 29.88 841 24.83 -0.7 30.8 92 -1.8 28.7 0 0
02:26 1012 29.88 841 24.83 -0.7 30.7 92 -1.9 28.7 0 0
02:27 1012 29.88 841 24.83 -0.8 30.6 93 -1.7 28.9 0 0
02:28 1012 29.88 841 24.83 -0.8 30.6 94 -1.7 29 0 0
02:29 1012 29.88 841 24.83 -0.8 30.6 93 -1.7 28.9 0 0
02:30 1012 29.88 841 24.83 -0.7 30.7 94 -1.5 29.3 0 0
02:31 1012 29.88 841 24.83 -0.6 31 95 -1.3 29.6 0 0
02:32 1012 29.88 841 24.83 -0.4 31.3 94 -1.3 29.7 0 0
02:33 1012 29.88 841 24.83 -0.4 31.3 93 -1.4 29.5 0 0
02:34 1012 29.88 841 24.83 -0.3 31.4 93 -1.3 29.6 0 0
02:35 1012 29.88 841 24.83 -0.2 31.6 93 -1.2 29.9 0 0
02:36 1012 29.88 841 24.83 -0.1 31.9 93 -1.1 30 0 0
02:37 1012 29.88 841 24.83 0.1 32.1 91 -1.3 29.7 0 0
02:38 1012 29.88 841 24.83 0.1 32.1 91 -1.2 29.9 0 0
02:39 1012 29.88 841 24.83 0.2 32.4 91 -1.1 30 0 0
02:40 1012 29.88 841 24.83 0.3 32.6 91 -1 30.2 0 0
02:41 1012 29.88 841 24.83 0.5 32.9 90 -1 30.2 0 0
02:42 1012 29.88 841 24.83 0.5 32.9 89 -1.1 30 0 0
02:43 1012 29.88 841 24.83 0.5 32.9 89 -1.1 30.1 0 0
02:44 1012 29.88 841 24.83 0.6 33.1 89 -1 30.2 0 0
02:45 1012 29.88 841 24.83 0.7 33.3 88 -1 30.2 0 0
02:46 1012 29.88 841 24.83 0.8 33.4 88 -1.1 30.1 0 0
02:47 1012 29.88 841 24.83 0.8 33.4 88 -1.1 30.1 0 0
02:48 1012 29.88 841 24.83 0.8 33.4 87 -1.1 30.1 0 0
02:49 1012 29.88 841 24.83 0.8 33.4 87 -1.1 29.9 0 0
02:50 1012 29.88 841 24.83 0.7 33.3 87 -1.2 29.9 0 0
02:51 1012 29.88 841 24.83 0.6 33.2 88 -1.2 29.9 0 0
02:52 1012 29.88 841 24.83 0.6 33.1 88 -1.1 30 0 0
02:53 1012 29.88 841 24.83 0.6 33.2 88 -1 30.1 0 0
02:54 1012 29.88 841 24.83 0.8 33.4 88 -1 30.1 0 0
02:55 1012 29.88 841 24.83 1 33.8 86 -1 30.2 0 0
02:56 1012 29.88 841 24.83 1.1 34.1 85 -1 30.1 0 0
02:57 1012 29.88 841 24.83 1.2 34.1 84 -1.2 29.9 0 0
02:58 1012 29.88 841 24.83 1.1 34 84 -1.3 29.6 0 0
02:59 1012 29.88 841 24.83 1 33.7 84 -1.4 29.5 0 0
03:00 1012 29.88 841 24.83 0.8 33.5 85 -1.4 29.5 0 0
03:01 1012 29.88 841 24.83 0.8 33.4 86 -1.3 29.7 0 0
03:02 1012 29.88 841 24.83 0.8 33.4 86 -1.3 29.7 0 0
03:03 1012 29.88 841 24.83 0.8 33.5 86 -1.3 29.7 0 0
03:04 1012 29.88 841 24.83 0.8 33.4 85 -1.5 29.3 0 0
03:05 1012 29.88 841 24.83 0.7 33.2 86 -1.3 29.6 0 0
03:06 1012 29.88 841 24.83 0.6 33.1 87 -1.3 29.6 0 0
03:07 1012 29.88 841 24.83 0.5 33 87 -1.3 29.6 0 0
03:08 1012 29.88 841 24.83 0.4 32.8 87 -1.5 29.4 0 0
03:09 1012 29.88 841 24.83 0.3 32.5 88 -1.5 29.2 0 0
03:10 1012 29.88 841 24.83 0.1 32.2 88 -1.7 29 0 0
03:11 1012 29.88 841 24.83 0 32 89 -1.6 29.1 0 0
03:12 1012 29.88 841 24.83 -0 32 90 -1.5 29.3 0 0
03:13 1012 29.88 841 24.83 0 32 90 -1.5 29.3 0 0
03:14 1012 29.88 841 24.83 0 32 90 -1.5 29.3 0 0
03:15 1012 29.88 841 24.83 0.1 32.1 90 -1.4 29.5 0 0
03:16 1012 29.88 841 24.83 0.2 32.3 90 -1.3 29.6 0 0
03:17 1012 29.88 841 24.83 0.2 32.4 89 -1.4 29.5 0 0
03:18 1012 29.88 841 24.83 0.3 32.5 89 -1.3 29.6 0 0
03:19 1012 29.88 841 24.83 0.2 32.4 89 -1.4 29.4 0 0
03:20 1012 29.88 841 24.83 0.2 32.4 89 -1.4 29.5 0 0
03:21 1012 29.88 841 24.83 0.2 32.4 89 -1.4 29.6 0 0
03:22 1012 29.88 841 24.83 0.2 32.4 89 -1.4 29.5 0 0
03:23 1012 29.88 841 24.83 0.2 32.4 90 -1.3 29.6 0 0
03:24 1012 29.88 841 24.83 0.2 32.4 89 -1.4 29.5 0 0
03:25 1012 29.88 841 24.83 0.2 32.3 90 -1.3 29.6 0 0
03:26 1012 29.88 841 24.83 0.2 32.4 89 -1.3 29.6 0 0
03:27 1012 29.88 841 24.83 0.2 32.4 89 -1.3 29.6 0 0
03:28 1012 29.88 841 24.83 0.2 32.4 89 -1.3 29.6 0 0
03:29 1012 29.88 841 24.83 0.2 32.4 89 -1.4 29.5 0 0
03:30 1012 29.88 841 24.83 0.3 32.5 89 -1.3 29.7 0 0
03:31 1012 29.88 842 24.86 0.3 32.5 89 -1.3 29.7 0 0
03:32 1012 29.88 841 24.83 0.3 32.5 89 -1.4 29.5 0 0
03:33 1012 29.88 842 24.86 0.2 32.4 88 -1.5 29.3 0 0
03:34 1012 29.88 842 24.86 0.1 32.1 87 -1.8 28.8 0 0
03:35 1012 29.88 842 24.86 -0.1 31.7 88 -1.9 28.7 0 0
03:36 1012 29.88 842 24.86 -0.2 31.6 90 -1.6 29 0 0
03:37 1012 29.88 842 24.86 -0.2 31.7 90 -1.7 28.9 0 0
03:38 1012 29.88 842 24.86 -0.2 31.6 89 -1.8 28.7 0 0
03:39 1012 29.88 842 24.86 -0.3 31.4 89 -1.8 28.7 0 0
03:40 1012 29.88 842 24.86 -0.4 31.4 90 -1.9 28.6 0 0
03:41 1012 29.88 842 24.86 -0.4 31.3 89 -1.9 28.5 0 0
03:42 1012 29.88 842 24.86 -0.5 31.1 89 -2.1 28.3 0 0
03:43 1012 29.88 842 24.86 -0.6 30.9 90 -2.1 28.2 0 0
03:44 1012 29.88 842 24.86 -0.7 30.7 92 -1.9 28.6 0 0
03:45 1012 29.88 842 24.86 -0.6 30.9 91 -1.9 28.6 0 0
03:46 1012 29.88 842 24.86 -0.7 30.8 89 -2.2 28 0 0
03:47 1012 29.88 842 24.86 -0.7 30.7 91 -2 28.5 0 0
03:48 1012 29.88 842 24.86 -0.5 31 92 -1.7 29 0 0
03:49 1012 29.88 842 24.86 -0.3 31.5 90 -1.7 29 0 0
03:50 1012 29.88 842 24.86 -0.1 31.8 90 -1.6 29.1 0 0
03:51 1012 29.88 842 24.86 0 32 89 -1.7 29 0 0
03:52 1012 29.88 842 24.86 0.1 32.1 88 -1.8 28.8 0 0
03:53 1012 29.88 842 24.86 0 32 87 -2 28.5 0 0
03:54 1012 29.88 842 24.86 -0.2 31.6 88 -2 28.4 0 0
03:55 1012 29.88 842 24.86 -0.3 31.4 89 -1.8 28.7 0 0
03:56 1012 29.88 842 24.86 -0.3 31.4 88 -2 28.3 0 0
03:57 1012 29.88 842 24.86 -0.5 31.1 89 -2.1 28.2 0 0
03:58 1012 29.88 842 24.86 -0.6 31 89 -2.1 28.2 0 0
03:59 1012 29.88 842 24.86 -0.6 31 91 -1.9 28.6 0 0
04:00 1012 29.88 842 24.86 -0.5 31.1 89 -2 28.3 0 0
04:01 1012 29.88 842 24.86 -0.6 30.9 89 -2.2 28 0 0
04:02 1012 29.88 842 24.86 -0.7 30.8 90 -2.2 28.1 0 0
04:03 1012 29.88 842 24.86 -0.8 30.6 90 -2.2 28 0 0
04:04 1012 29.88 842 24.86 -0.9 30.5 90 -2.3 27.9 0 0
04:05 1012 29.88 842 24.86 -0.9 30.4 91 -2.1 28.1 0 0
04:06 1012 29.88 842 24.86 -0.8 30.5 91 -2.1 28.2 0 0
04:07 1012 29.88 842 24.86 -0.9 30.4 90 -2.3 27.8 0 0
04:08 1012 29.88 842 24.86 -1 30.2 90 -2.5 27.6 0 0
04:09 1012 29.88 842 24.86 -1.1 30 91 -2.4 27.6 0 0
04:10 1012 29.88 842 24.86 -1.1 30 91 -2.4 27.8 0 0
04:11 1012 29.88 842 24.86 -1.1 30 90 -2.5 27.4 0 0
04:12 1012 29.88 842 24.86 -1.3 29.7 90 -2.6 27.3 0 0
04:13 1012 29.88 842 24.86 -1.3 29.6 92 -2.5 27.4 0 0
04:14 1012 29.88 842 24.86 -1.3 29.7 93 -2.3 27.8 0 0
04:15 1012 29.88 842 24.86 -1.2 29.8 92 -2.5 27.6 0 0
04:16 1012 29.88 842 24.86 -1.3 29.7 91 -2.5 27.5 0 0
04:17 1012 29.88 842 24.86 -1.3 29.6 91 -2.6 27.3 0 0
04:18 1012 29.88 842 24.86 -1.4 29.4 92 -2.5 27.4 0 0
04:19 1012 29.88 842 24.86 -1.4 29.5 93 -2.3 27.8 0 0
04:20 1012 29.88 842 24.86 -1.3 29.7 93 -2.3 27.8 0 0
04:21 1012 29.88 842 24.86 -1.3 29.6 92 -2.5 27.5 0 0
04:22 1012 29.88 842 24.86 -1.4 29.5 93 -2.4 27.6 0 0
04:23 1012 29.88 842 24.86 -1.4 29.4 93 -2.4 27.6 0 0
04:24 1012 29.88 842 24.86 -1.4 29.4 93 -2.4 27.6 0 0
04:25 1012 29.88 842 24.86 -1.5 29.4 93 -2.5 27.5 0 0
04:26 1012 29.88 842 24.86 -1.5 29.3 93 -2.5 27.4 0 0
04:27 1012 29.88 842 24.86 -1.5 29.2 93 -2.5 27.5 0 0
04:28 1012 29.88 842 24.86 -1.5 29.3 93 -2.5 27.5 0 0
04:29 1012 29.88 842 24.86 -1.5 29.4 93 -2.5 27.5 0 0
04:30 1012 29.88 842 24.86 -1.4 29.4 92 -2.5 27.5 0 0
04:31 1012 29.88 842 24.86 -1.4 29.5 92 -2.5 27.5 0 0
04:32 1012 29.88 842 24.86 -1.4 29.5 91 -2.6 27.3 0 0
04:33 1012 29.88 842 24.86 -1.5 29.4 91 -2.7 27.1 0 0
04:34 1012 29.88 842 24.86 -1.5 29.2 91 -2.8 27 0 0
04:35 1012 29.88 842 24.86 -1.6 29.2 91 -2.8 26.9 0 0
04:36 1012 29.88 842 24.86 -1.6 29.1 92 -2.7 27.2 0 0
04:37 1012 29.88 842 24.86 -1.4 29.4 93 -2.5 27.5 0 0
04:38 1012 29.88 842 24.86 -1.2 29.8 91 -2.5 27.4 0 0
04:39 1012 29.88 842 24.86 -1.2 29.9 90 -2.6 27.4 0 0
04:40 1012 29.88 842 24.86 -1 30.1 90 -2.5 27.6 0 0
04:41 1012 29.88 842 24.86 -1 30.2 89 -2.5 27.4 0 0
04:42 1012 29.88 842 24.86 -1.1 30.1 89 -2.6 27.2 0 0
04:43 1012 29.88 842 24.86 -1.1 30.1 88 -2.8 27 0 0
04:44 1012 29.88 842 24.86 -1.2 29.8 88 -3 26.6 0 0
04:45 1013 29.91 842 24.86 -1.4 29.4 88 -3.2 26.3 0 0
04:46 1013 29.91 842 24.86 -1.6 29.1 89 -3.3 26.1 0 0
04:47 1013 29.91 842 24.86 -1.8 28.8 90 -3.3 26.1 0 0
04:48 1013 29.91 842 24.86 -1.8 28.7 90 -3.3 26.1 0 0
04:49 1013 29.91 842 24.86 -1.9 28.6 92 -3.1 26.5 0 0
04:50 1013 29.91 842 24.86 -1.9 28.6 92 -3.1 26.4 0 0
04:51 1013 29.91 842 24.86 -1.9 28.5 91 -3.2 26.2 0 0
04:52 1013 29.91 842 24.86 -2 28.3 91 -3.3 26.1 0 0
04:53 1013 29.91 842 24.86 -2.1 28.2 91 -3.4 25.8 0 0
04:54 1013 29.91 842 24.86 -2.2 28 91 -3.6 25.6 0 0
04:55 1013 29.91 842 24.86 -2.4 27.6 90 -3.8 25.1 0 0
04:56 1013 29.91 842 24.86 -2.5 27.4 91 -3.8 25.1 0 0
04:57 1013 29.91 842 24.86 -2.6 27.3 93 -3.6 25.5 0 0
04:58 1013 29.91 842 24.86 -2.5 27.5 93 -3.5 25.8 0 0
04:59 1013 29.91 842 24.86 -2.4 27.6 92 -3.5 25.6 0 0
05:00 1013 29.91 842 24.86 -2.4 27.6 92 -3.6 25.5 0 0
05:01 1013 29.91 842 24.86 -2.4 27.6 92 -3.6 25.5 0 0
05:02 1013 29.91 842 24.86 -2.4 27.8 90 -3.7 25.3 0 0
05:03 1013 29.91 842 24.86 -2.4 27.7 89 -3.9 25 0 0
05:04 1013 29.91 842 24.86 -2.5 27.5 91 -3.7 25.3 0 0
05:05 1013 29.91 842 24.86 -2.4 27.7 91 -3.6 25.5 0 0
05:06 1013 29.91 842 24.86 -2.4 27.6 89 -4 24.8 0 0
05:07 1013 29.91 842 24.86 -2.5 27.4 89 -4.1 24.6 0 0
05:08 1013 29.91 842 24.86 -2.6 27.2 90 -4 24.7 0 0
05:09 1013 29.91 842 24.86 -2.8 27.1 91 -4.1 24.7 0 0
05:10 1013 29.91 842 24.86 -2.8 27 91 -4 24.8 0 0
05:11 1013 29.91 842 24.86 -2.7 27.2 94 -3.5 25.8 0 0
05:12 1013 29.91 842 24.86 -2.4 27.7 95 -3.1 26.5 0 0
05:13 1013 29.91 842 24.86 -2.2 28.1 95 -2.9 26.8 0 0
05:14 1013 29.91 842 24.86 -2.1 28.3 95 -2.8 27 0 0
05:15 1013 29.91 842 24.86 -2 28.5 93 -2.9 26.8 0 0
05:16 1013 29.91 842 24.86 -2 28.4 93 -3 26.5 0 0
05:17 1013 29.91 842 24.86 -1.9 28.5 94 -2.9 26.9 0 0
05:18 1013 29.91 842 24.86 -2 28.5 92 -3.1 26.4 0 0
05:19 1013 29.91 842 24.86 -2 28.3 91 -3.3 26 0 0
05:20 1013 29.91 842 24.86 -2.1 28.3 92 -3.2 26.2 0 0
05:21 1013 29.91 842 24.86 -2.1 28.2 90 -3.5 25.8 0 0
05:22 1013 29.91 842 24.86 -2.2 28 91 -3.4 25.8 0 0
05:23 1013 29.91 842 24.86 -2.2 28 92 -3.4 25.9 0 0
05:24 1013 29.91 842 24.86 -2.2 28 93 -3.2 26.2 0 0
05:25 1013 29.91 842 24.86 -2.3 27.9 93 -3.3 26.1 0 0
05:26 1013 29.91 842 24.86 -2.3 27.9 93 -3.3 26 0 0
05:27 1013 29.91 842 24.86 -2.3 27.8 93 -3.3 26 0 0
05:28 1013 29.91 842 24.86 -2.4 27.8 93 -3.3 26 0 0
05:29 1013 29.91 842 24.86 -2.3 27.8 94 -3.2 26.3 0 0
05:30 1013 29.91 842 24.86 -2.3 27.9 93 -3.3 26.1 0 0
05:31 1013 29.91 842 24.86 -2.3 27.9 94 -3.2 26.3 0 0
05:32 1013 29.91 842 24.86 -2 28.4 96 -2.5 27.4 0 0
05:33 1013 29.91 842 24.86 -1.6 29.2 96 -2.1 28.1 0 0
05:34 1013 29.91 842 24.86 -1.4 29.5 92 -2.5 27.4 0 0
05:35 1013 29.91 842 24.86 -1.5 29.3 89 -3.1 26.4 0 0
05:36 1013 29.91 842 24.86 -1.7 29 92 -2.9 26.9 0 0
05:37 1013 29.91 842 24.86 -1.6 29.2 93 -2.5 27.5 0 0
05:38 1013 29.91 842 24.86 -1.3 29.6 94 -2.1 28.1 0 0
05:39 1013 29.91 842 24.86 -1.1 30 93 -2.2 28.1 0 0
05:40 1013 29.91 842 24.86 -1.1 30.1 92 -2.2 28 0 0
05:41 1013 29.91 842 24.86 -1 30.2 91 -2.2 28 0 0
05:42 1013 29.91 842 24.86 -1 30.2 90 -2.4 27.6 0 0
05:43 1013 29.91 842 24.86 -1.1 30 90 -2.6 27.3 0 0
05:44 1013 29.91 842 24.86 -1.3 29.7 89 -2.8 26.9 0 0
05:45 1013 29.91 842 24.86 -1.4 29.5 90 -2.8 26.9 0 0
05:46 1013 29.91 842 24.86 -1.5 29.3 90 -3 26.6 0 0
05:47 1013 29.91 842 24.86 -1.6 29.2 91 -2.8 26.9 0 0
05:48 1013 29.91 842 24.86 -1.5 29.3 91 -2.7 27.1 0 0
05:49 1013 29.91 842 24.86 -1.5 29.3 90 -3 26.7 0 0
05:50 1013 29.91 842 24.86 -1.5 29.3 92 -2.7 27.1 0 0
05:51 1013 29.91 842 24.86 -1.4 29.5 92 -2.6 27.4 0 0
05:52 1013 29.91 842 24.86 -1.4 29.5 91 -2.6 27.3 0 0
05:53 1013 29.91 842 24.86 -1.4 29.5 91 -2.7 27.2 0 0
05:54 1013 29.91 842 24.86 -1.3 29.6 91 -2.6 27.4 0 0
05:55 1013 29.91 842 24.86 -1.3 29.6 91 -2.5 27.4 0 0
05:56 1013 29.91 842 24.86 -1.3 29.6 91 -2.5 27.4 0 0
05:57 1013 29.91 842 24.86 -1.3 29.7 91 -2.5 27.5 0 0
05:58 1013 29.91 842 24.86 -1.3 29.6 91 -2.6 27.3 0 0
05:59 1013 29.91 842 24.86 -1.3 29.6 91 -2.6 27.3 0 0
06:00 1013 29.91 842 24.86 -1.3 29.7 91 -2.6 27.4 0 0
06:01 1013 29.91 842 24.86 -1.3 29.7 91 -2.6 27.3 0 0
06:02 1013 29.91 842 24.86 -1.3 29.7 90 -2.6 27.2 0 0
06:03 1013 29.91 842 24.86 -1.3 29.7 90 -2.6 27.2 0 0
06:04 1013 29.91 842 24.86 -1.2 29.8 91 -2.6 27.4 0 0
06:05 1013 29.91 842 24.86 -1.2 29.9 90 -2.6 27.3 0 0
06:06 1013 29.91 842 24.86 -1.1 30 90 -2.6 27.4 0 0
06:07 1013 29.91 842 24.86 -1.1 29.9 90 -2.7 27.2 0 0
06:08 1013 29.91 842 24.86 -1.1 30 90 -2.6 27.4 0 0
06:09 1013 29.91 842 24.86 -1.1 30 89 -2.7 27.2 0 0
06:10 1013 29.91 842 24.86 -1.2 29.9 89 -2.8 27 0 0
06:11 1013 29.91 842 24.86 -1.2 29.8 90 -2.7 27.1 0 0
06:12 1013 29.91 842 24.86 -1.3 29.7 89 -2.8 27 0 0
06:13 1013 29.91 842 24.86 -1.3 29.6 89 -2.9 26.8 0 0
06:14 1013 29.91 842 24.86 -1.4 29.5 90 -2.9 26.9 0 0
06:15 1013 29.91 842 24.86 -1.4 29.4 90 -2.9 26.8 0 0
06:16 1013 29.91 842 24.86 -1.6 29.2 90 -3 26.6 0 0
06:17 1013 29.91 842 24.86 -1.5 29.2 92 -2.7 27.1 0 0
06:18 1013 29.91 842 24.86 -1.4 29.5 91 -2.6 27.3 0 0
06:19 1013 29.91 842 24.86 -1.3 29.7 90 -2.7 27.1 0 0
06:20 1013 29.91 842 24.86 -1.4 29.5 89 -3 26.6 0 0
06:21 1013 29.91 842 24.86 -1.5 29.3 90 -2.9 26.7 0 0
06:22 1013 29.91 842 24.86 -1.6 29.1 90 -3.1 26.5 0 0
06:23 1013 29.91 842 24.86 -1.7 28.9 91 -3 26.6 0 0
06:24 1013 29.91 842 24.86 -1.7 28.9 92 -2.9 26.7 0 0
06:25 1013 29.91 842 24.86 -1.7 29 91 -2.9 26.8 0 0
06:26 1013 29.91 842 24.86 -1.6 29.1 91 -2.9 26.8 0 0
06:27 1013 29.91 842 24.86 -1.6 29 91 -2.9 26.9 0 0
06:28 1013 29.91 842 24.86 -1.6 29.1 91 -2.8 26.9 0 0
06:29 1013 29.91 842 24.86 -1.6 29.1 91 -2.9 26.8 0 0
06:30 1013 29.91 842 24.86 -1.5 29.2 91 -2.9 26.9 0 0
06:31 1013 29.91 842 24.86 -1.6 29.2 91 -2.9 26.8 0 0
06:32 1013 29.91 842 24.86 -1.5 29.3 91 -2.8 27 0 0
06:33 1013 29.91 842 24.86 -1.4 29.5 91 -2.7 27.1 0 0
06:34 1013 29.91 842 24.86 -1.4 29.6 90 -2.8 27 0 0
06:35 1013 29.91 842 24.86 -1.3 29.7 90 -2.7 27.1 0 0
06:36 1013 29.91 842 24.86 -1.3 29.7 90 -2.8 27 0 0
06:37 1013 29.91 842 24.86 -1.3 29.6 89 -2.9 26.8 0 0
06:38 1013 29.91 842 24.86 -1.4 29.6 89 -2.9 26.7 0 0
06:39 1013 29.91 842 24.86 -1.4 29.5 89 -3 26.6 0 0
06:40 1013 29.91 842 24.86 -1.4 29.4 90 -2.9 26.7 0 0
06:41 1013 29.91 842 24.86 -1.4 29.5 89 -2.9 26.8 0 0
06:42 1013 29.91 842 24.86 -1.4 29.6 89 -2.9 26.8 0 0
06:43 1013 29.91 842 24.86 -1.3 29.6 89 -2.9 26.8 0 0
06:44 1013 29.91 842 24.86 -1.4 29.5 89 -3 26.6 0 0
06:45 1013 29.91 842 24.86 -1.4 29.5 89 -3 26.7 0 0
06:46 1013 29.91 842 24.86 -1.4 29.5 89 -3 26.6 0 0
06:47 1013 29.91 842 24.86 -1.4 29.5 88 -3.1 26.4 0 0
06:48 1013 29.91 842 24.86 -1.4 29.4 89 -3.1 26.5 0 0
06:49 1013 29.91 842 24.86 -1.5 29.3 88 -3.3 26.1 0 0
06:50 1013 29.91 842 24.86 -1.6 29.2 90 -3.1 26.5 0 0
06:51 1013 29.91 842 24.86 -1.5 29.3 90 -3 26.6 0 0
06:52 1013 29.91 842 24.86 -1.4 29.5 90 -2.9 26.8 0 0
06:53 1013 29.91 842 24.86 -1.3 29.6 89 -3 26.7 0 0
06:54 1013 29.91 842 24.86 -1.3 29.6 89 -3 26.7 0 0
06:55 1013 29.91 842 24.86 -1.3 29.6 88 -3 26.5 0 0
06:56 1013 29.91 842 24.86 -1.3 29.6 88 -3.1 26.5 0 0
06:57 1013 29.91 842 24.86 -1.4 29.5 88 -3.1 26.5 0 0
06:58 1013 29.91 842 24.86 -1.4 29.4 89 -3 26.6 0 0
06:59 1013 29.91 842 24.86 -1.4 29.5 89 -3 26.6 0 0
07:00 1013 29.91 842 24.86 -1.3 29.7 88 -3 26.6 0 0
07:01 1013 29.91 842 24.86 -1.2 29.8 88 -2.9 26.7 0 0
07:02 1013 29.91 842 24.86 -1.2 29.8 88 -3 26.7 0 0
07:03 1013 29.91 842 24.86 -1.2 29.8 88 -3 26.7 0 0
07:04 1013 29.91 842 24.86 -1.2 29.8 88 -2.9 26.7 0 0
07:05 1013 29.91 842 24.86 -1.3 29.7 88 -3 26.7 0 0
07:06 1013 29.91 842 24.86 -1.3 29.7 89 -2.9 26.7 0 0
07:07 1013 29.91 842 24.86 -1.3 29.7 88 -3 26.7 0 0
07:08 1013 29.91 842 24.86 -1.3 29.6 89 -3 26.6 0 0
07:09 1013 29.91 842 24.86 -1.4 29.6 89 -3 26.6 0 0
07:10 1013 29.91 842 24.86 -1.4 29.5 89 -3 26.6 0 0
07:11 1013 29.91 842 24.86 -1.4 29.4 89 -3 26.6 0 0
07:12 1013 29.91 842 24.86 -1.4 29.4 90 -2.9 26.7 0 0
07:13 1013 29.91 842 24.86 -1.4 29.4 90 -2.9 26.8 0 0
07:14 1013 29.91 842 24.86 -1.4 29.5 90 -2.8 26.9 0 0
07:15 1013 29.91 842 24.86 -1.3 29.7 90 -2.8 27 0 0
07:16 1013 29.91 842 24.86 -1.3 29.7 89 -2.8 26.9 0 0
07:17 1013 29.91 842 24.86 -1.2 29.8 88 -2.9 26.7 0 0
07:18 1013 29.91 842 24.86 -1.2 29.8 89 -2.9 26.8 0 0
07:19 1013 29.91 842 24.86 -1.2 29.9 86 -3.2 26.3 0 0
07:20 1013 29.91 842 24.86 -1.3 29.7 87 -3.2 26.2 0 0
07:21 1013 29.91 842 24.86 -1.4 29.5 87 -3.3 26 0 0
07:22 1013 29.91 842 24.86 -1.5 29.3 88 -3.2 26.2 0 0
07:23 1013 29.91 842 24.86 -1.5 29.4 90 -3 26.6 0 0
07:24 1013 29.91 842 24.86 -1.4 29.6 90 -2.8 26.9 0 0
07:25 1013 29.91 842 24.86 -1.2 29.8 90 -2.7 27.1 0 0
07:26 1013 29.91 842 24.86 -1.1 30.1 89 -2.6 27.2 0 0
07:27 1013 29.91 842 24.86 -0.9 30.3 89 -2.6 27.3 0 0
07:28 1013 29.91 842 24.86 -0.8 30.6 88 -2.6 27.4 0 0
07:29 1013 29.91 842 24.86 -0.7 30.8 87 -2.6 27.3 0 0
07:30 1013 29.91 842 24.86 -0.5 31.1 86 -2.6 27.4 0 0
07:31 1013 29.91 842 24.86 -0.4 31.2 85 -2.6 27.3 0 0
07:32 1013 29.91 842 24.86 -0.3 31.4 85 -2.6 27.3 0 0
07:33 1013 29.91 842 24.86 -0.2 31.6 84 -2.6 27.3 0 0
07:34 1013 29.91 842 24.86 -0.2 31.7 84 -2.6 27.3 0 0
07:35 1013 29.91 842 24.86 -0.2 31.7 84 -2.6 27.4 0 0
07:36 1013 29.91 842 24.86 -0.1 31.8 84 -2.5 27.5 0 0
07:37 1013 29.91 842 24.86 -0 32 83 -2.5 27.5 0 0
07:38 1013 29.91 842 24.86 0.1 32.2 83 -2.4 27.7 0 0
07:39 1013 29.91 842 24.86 0.2 32.3 83 -2.3 27.8 0 0
07:40 1013 29.91 842 24.86 0.2 32.3 83 -2.3 27.8 0 0
07:41 1013 29.91 842 24.86 0.3 32.5 83 -2.3 27.8 0 0
07:42 1013 29.91 842 24.86 0.4 32.6 83 -2.2 28.1 0 0
07:43 1013 29.91 842 24.86 0.4 32.8 83 -2.1 28.2 0 0
07:44 1013 29.91 842 24.86 0.5 33 83 -2 28.4 0 0
07:45 1013 29.91 842 24.86 0.6 33.1 83 -2 28.5 0 0
07:46 1013 29.91 842 24.86 0.8 33.4 83 -1.8 28.7 0 0
07:47 1013 29.91 842 24.86 0.9 33.6 82 -1.8 28.7 0 0
07:48 1013 29.91 842 24.86 0.9 33.7 81 -1.9 28.5 0 0
07:49 1013 29.91 842 24.86 1 33.8 82 -1.8 28.8 0 0
07:50 1013 29.91 842 24.86 1 33.9 81 -1.9 28.6 0 0
07:51 1013 29.91 842 24.86 1.1 33.9 81 -1.8 28.8 0 0
07:52 1013 29.91 842 24.86 1.1 34 82 -1.6 29.1 0 0
07:53 1013 29.91 842 24.86 1.1 34 82 -1.5 29.2 0 0
07:54 1013 29.91 842 24.86 1.1 34 82 -1.6 29.2 0 0
07:55 1013 29.91 842 24.86 1.1 34 82 -1.6 29.1 0 0
07:56 1013 29.91 842 24.86 1.1 34 83 -1.5 29.3 0 0
07:57 1013 29.91 842 24.86 1.2 34.1 83 -1.4 29.5 0 0
07:58 1013 29.91 842 24.86 1.2 34.2 83 -1.4 29.4 0 0
07:59 1013 29.91 842 24.86 1.3 34.3 83 -1.3 29.6 0 0
08:00 1013 29.91 842 24.86 1.4 34.5 84 -1.1 30 0 0
08:01 1013 29.91 842 24.86 1.4 34.6 82 -1.4 29.6 0 0
08:02 1013 29.91 842 24.86 1.6 34.8 82 -1.2 29.9 0 0
08:03 1013 29.91 842 24.86 1.7 35 81 -1.2 29.8 0 0
08:04 1013 29.91 842 24.86 1.8 35.2 79 -1.5 29.3 0 0
08:05 1013 29.91 842 24.86 1.9 35.5 80 -1.2 29.8 0 0
08:06 1013 29.91 842 24.86 2.1 35.8 78 -1.4 29.5 0 0
08:07 1013 29.91 842 24.86 2.2 35.9 79 -1.2 29.9 0 0
08:08 1013 29.91 842 24.86 2.3 36.2 76 -1.4 29.4 0 0
08:09 1013 29.91 842 24.86 2.5 36.5 77 -1.1 30.1 0 0
08:10 1013 29.91 842 24.86 2.6 36.7 76 -1.2 29.9 0 0
08:11 1013 29.91 842 24.86 2.7 36.9 75 -1.3 29.7 0 0
08:12 1013 29.91 842 24.86 2.8 37.1 76 -0.9 30.4 0 0
08:13 1013 29.91 842 24.86 3 37.3 75 -1 30.1 0 0
08:14 1013 29.91 842 24.86 3.1 37.6 76 -0.7 30.7 0 0
08:15 1013 29.91 842 24.86 3.3 37.9 71 -1.4 29.5 0 0
08:16 1013 29.91 842 24.86 3.2 37.8 70 -1.7 29 0 0
08:17 1013 29.91 842 24.86 3.1 37.7 71 -1.5 29.3 0 0
08:18 1013 29.91 842 24.86 3.1 37.5 73 -1.4 29.5 0 0
08:19 1013 29.91 842 24.86 3 37.3 71 -1.7 28.9 0 0
08:20 1013 29.91 842 24.86 2.9 37.3 72 -1.6 29.1 0 0
08:21 1013 29.91 842 24.86 2.9 37.1 75 -1.1 30 0 0
08:22 1013 29.91 842 24.86 2.8 37.1 73 -1.4 29.4 0 0
08:23 1013 29.91 842 24.86 2.8 37 75 -1.2 29.8 0 0
08:24 1013 29.91 842 24.86 2.7 36.9 76 -1.1 30 0 0
08:25 1013 29.91 842 24.86 2.7 36.8 75 -1.3 29.6 0 0
08:26 1013 29.91 842 24.86 2.7 36.9 78 -0.8 30.5 0 0
08:27 1013 29.91 842 24.86 2.7 36.9 78 -0.7 30.7 0 0
08:28 1013 29.91 842 24.86 2.7 36.9 77 -0.8 30.5 0 0
08:29 1013 29.91 842 24.86 2.7 36.8 79 -0.7 30.8 .2 0.008
08:30 1013 29.91 842 24.86 2.6 36.6 79 -0.7 30.8 0 0
08:31 1013 29.91 842 24.86 2.6 36.6 80 -0.6 31 0 0
08:32 1013 29.91 842 24.86 2.5 36.6 79 -0.8 30.6 0 0
08:33 1013 29.91 842 24.86 2.5 36.5 78 -0.9 30.4 0 0
08:34 1013 29.91 842 24.86 2.6 36.7 78 -0.9 30.4 0 0
08:35 1013 29.91 842 24.86 2.7 36.9 78 -0.7 30.7 0 0
08:36 1013 29.91 842 24.86 2.9 37.3 74 -1.2 29.9 0 0
08:37 1013 29.91 842 24.86 3.1 37.6 71 -1.6 29.1 0 0
08:38 1013 29.91 842 24.86 3.3 38 77 -0.4 31.3 0 0
08:39 1013 29.91 842 24.86 3.5 38.3 71 -1.3 29.6 0 0
08:40 1013 29.91 842 24.86 3.6 38.4 71 -1.2 29.8 0 0
08:41 1013 29.91 842 24.86 3.7 38.6 72 -1 30.2 0 0
08:42 1013 29.91 842 24.86 3.8 38.9 75 -0.2 31.7 0 0
08:43 1013 29.91 842 24.86 4 39.1 72 -0.7 30.7 0 0
08:44 1013 29.91 842 24.86 4.1 39.4 69 -1.2 29.9 0 0
08:45 1013 29.91 842 24.86 4.2 39.6 71 -0.6 31 0 0
08:46 1013 29.91 842 24.86 4.4 40 66 -1.3 29.7 0 0
08:47 1013 29.91 842 24.86 4.5 40.2 64 -1.6 29.2 0 0
08:48 1013 29.91 842 24.86 4.6 40.3 67 -1.1 30.1 0 0
08:49 1013 29.91 842 24.86 4.7 40.4 66 -1.1 30.1 0 0
08:50 1013 29.91 842 24.86 4.7 40.5 69 -0.4 31.3 0 0
08:51 1013 29.91 842 24.86 4.9 40.8 69 -0.2 31.6 0 0
08:52 1013 29.91 842 24.86 5 41.1 66 -0.8 30.6 0 0
08:53 1013 29.91 842 24.86 5.1 41.3 60 -2 28.4 0 0
08:54 1013 29.91 842 24.86 5.2 41.3 61 -1.7 29 0 0
08:55 1013 29.91 842 24.86 5.1 41.2 61 -1.7 28.9 0 0
08:56 1013 29.91 842 24.86 5.1 41.1 61 -1.8 28.8 0 0
08:57 1013 29.91 842 24.86 5 41 64 -1.2 29.9 0 0
08:58 1013 29.91 842 24.86 5 41 61 -1.8 28.7 0 0
08:59 1013 29.91 842 24.86 5.1 41.2 63 -1.3 29.6 0 0
09:00 1013 29.91 842 24.86 5.2 41.3 65 -1 30.3 0 0
09:01 1013 29.91 842 24.86 5.3 41.5 59 -2 28.3 0 0
09:02 1013 29.91 842 24.86 5.3 41.6 58 -2.2 28 0 0
09:03 1013 29.91 842 24.86 5.3 41.6 63 -1 30.1 0 0
09:04 1013 29.91 842 24.86 5.4 41.7 60 -1.8 28.7 0 0
09:05 1013 29.91 842 24.86 5.4 41.7 59 -1.9 28.5 0 0
09:06 1013 29.91 842 24.86 5.4 41.8 58 -2.1 28.2 0 0
09:07 1013 29.91 842 24.86 5.6 42 59 -1.8 28.8 0 0
09:08 1013 29.91 842 24.86 5.6 42.1 56 -2.4 27.7 0 0
09:09 1013 29.91 842 24.86 5.6 42.1 57 -2.3 27.9 0 0
09:10 1013 29.91 842 24.86 5.7 42.2 58 -1.9 28.6 0 0
09:11 1013 29.91 842 24.86 5.8 42.4 58 -1.9 28.5 0 0
09:12 1013 29.91 842 24.86 5.8 42.5 56 -2.3 27.8 0 0
09:13 1013 29.91 842 24.86 5.9 42.6 57 -2 28.4 0 0
09:14 1013 29.91 842 24.86 6 42.9 59 -1.4 29.5 0 0
09:15 1013 29.91 842 24.86 6.1 43 56 -1.9 28.5 0 0
09:16 1013 29.91 842 24.86 6 42.9 54 -2.7 27.2 0 0
09:17 1013 29.91 842 24.86 5.9 42.6 58 -1.6 29.1 0 0
09:18 1013 29.91 842 24.86 5.7 42.3 55 -2.7 27.2 0 0
09:19 1013 29.91 842 24.86 5.7 42.3 58 -2 28.4 0 0
09:20 1013 29.91 842 24.86 5.9 42.7 59 -1.5 29.3 0 0
09:21 1013 29.91 842 24.86 6.2 43.1 55 -2.2 28 0 0
09:22 1013 29.91 842 24.86 6.4 43.5 56 -1.8 28.8 0 0
09:23 1013 29.91 842 24.86 6.6 43.9 55 -1.8 28.7 0 0
09:24 1013 29.91 842 24.86 6.7 44.1 57 -1.1 30 0 0
09:25 1013 29.91 842 24.86 6.9 44.4 52 -2.4 27.7 0 0
09:26 1013 29.91 842 24.86 6.9 44.4 54 -1.8 28.8 0 0
09:27 1013 29.91 842 24.86 6.8 44.2 55 -1.6 29.1 0 0
09:28 1013 29.91 842 24.86 6.8 44.2 55 -1.7 28.9 0 0
09:29 1013 29.91 842 24.86 6.7 44 53 -2.3 27.8 0 0
09:30 1013 29.91 842 24.86 6.6 43.9 52 -2.6 27.4 0 0
09:31 1013 29.91 842 24.86 6.6 44 51 -2.9 26.8 0 0
09:32 1013 29.91 842 24.86 6.6 43.9 55 -1.9 28.6 0 0
09:33 1013 29.91 842 24.86 6.6 43.9 57 -1.2 29.8 0 0
09:34 1013 29.91 842 24.86 6.7 44 54 -2 28.4 0 0
09:35 1013 29.91 842 24.86 6.7 44 53 -2.2 28.1 0 0
09:36 1013 29.91 842 24.86 6.7 44.1 55 -1.8 28.8 0 0
09:37 1013 29.91 842 24.86 6.7 44.1 52 -2.6 27.4 0 0
09:38 1013 29.91 842 24.86 6.6 43.9 53 -2.3 27.8 0 0
09:39 1013 29.91 842 24.86 6.6 43.8 51 -2.9 26.7 0 0
09:40 1013 29.91 842 24.86 6.6 43.8 56 -1.6 29.2 0 0
09:41 1013 29.91 842 24.86 6.6 43.9 51 -2.7 27.1 0 0
09:42 1013 29.91 842 24.86 6.6 44 51 -2.7 27.1 0 0
09:43 1012 29.88 842 24.86 6.7 44 53 -2.3 27.9 0 0
09:44 1012 29.88 842 24.86 6.7 44.1 55 -1.6 29 0 0
09:45 1012 29.88 842 24.86 6.8 44.3 55 -1.5 29.2 0 0
09:46 1012 29.88 842 24.86 6.9 44.4 53 -2 28.3 0 0
09:47 1012 29.88 842 24.86 6.9 44.4 53 -2 28.3 0 0
09:48 1012 29.88 842 24.86 7 44.7 55 -1.3 29.7 0 0
09:49 1012 29.88 842 24.86 7.3 45.1 55 -1.1 30 0 0
09:50 1012 29.88 842 24.86 7.3 45.2 55 -1.2 29.8 0 0
09:51 1012 29.88 842 24.86 7.2 45 51 -2.2 28.1 0 0
09:52 1012 29.88 842 24.86 7.2 44.9 53 -1.7 28.9 0 0
09:53 1012 29.88 842 24.86 7.2 44.9 50 -2.6 27.3 0 0
09:54 1012 29.88 842 24.86 7.2 44.9 50 -2.4 27.6 0 0
09:55 1012 29.88 842 24.86 7.2 45 59 -0.2 31.7 0 0
09:56 1012 29.88 842 24.86 7.4 45.4 51 -2 28.4 0 0
09:57 1012 29.88 842 24.86 7.5 45.4 49 -2.5 27.5 0 0
09:58 1012 29.88 842 24.86 7.3 45.1 50 -2.4 27.7 0 0
09:59 1012 29.88 842 24.86 7.3 45.1 51 -2.1 28.2 0 0
10:00 1012 29.88 842 24.86 7.3 45.2 54 -1.5 29.3 0 0
10:01 1012 29.88 842 24.86 7.4 45.4 51 -2 28.4 0 0
10:02 1012 29.88 842 24.86 7.5 45.5 48 -2.8 26.9 0 0
10:03 1012 29.88 842 24.86 7.4 45.3 54 -1.4 29.6 0 0
10:04 1012 29.88 842 24.86 7.5 45.5 52 -1.8 28.8 0 0
10:05 1012 29.88 842 24.86 7.6 45.6 48 -2.8 27 0 0
10:06 1012 29.88 842 24.86 7.5 45.4 50 -2.2 28.1 0 0
10:07 1012 29.88 841 24.83 7.6 45.7 54 -1 30.2 0 0
10:08 1012 29.88 841 24.83 7.9 46.1 56 -0.2 31.6 0 0
10:09 1012 29.88 841 24.83 8 46.3 48 -2.4 27.8 0 0
10:10 1012 29.88 841 24.83 7.9 46.2 51 -1.5 29.4 0 0
10:11 1012 29.88 841 24.83 7.9 46.2 47 -2.8 27 0 0
10:12 1012 29.88 841 24.83 7.9 46.2 52 -1.2 29.8 0 0
10:13 1012 29.88 841 24.83 8 46.4 49 -1.9 28.6 0 0
10:14 1012 29.88 841 24.83 8 46.3 50 -1.7 28.9 0 0
10:15 1012 29.88 841 24.83 8 46.4 50 -1.7 29 0 0
10:16 1012 29.88 841 24.83 8.1 46.7 48 -2.1 28.3 0 0
10:17 1012 29.88 841 24.83 8.3 46.9 49 -1.8 28.7 0 0
10:18 1012 29.88 841 24.83 8.4 47.1 49 -1.7 28.9 0 0
10:19 1012 29.88 841 24.83 8.5 47.3 47 -2.1 28.1 0 0
10:20 1012 29.88 841 24.83 8.5 47.4 45 -2.6 27.3 0 0
10:21 1012 29.88 841 24.83 8.5 47.3 51 -1.1 30 0 0
10:22 1012 29.88 841 24.83 8.6 47.5 50 -1.1 30 0 0
10:23 1012 29.88 841 24.83 8.8 47.8 49 -1.3 29.7 0 0
10:24 1012 29.88 841 24.83 8.7 47.6 48 -1.8 28.8 0 0
10:25 1012 29.88 841 24.83 8.5 47.3 46 -2.5 27.5 0 0
10:26 1012 29.88 841 24.83 8.3 47 47 -2.4 27.7 0 0
10:27 1012 29.88 841 24.83 8.3 47 47 -2.4 27.7 0 0
10:28 1012 29.88 841 24.83 8.4 47.1 50 -1.5 29.3 0 0
10:29 1012 29.88 841 24.83 8.6 47.5 46 -2.4 27.6 0 0
10:30 1012 29.88 841 24.83 8.6 47.5 50 -1.1 30 0 0
10:31 1012 29.88 841 24.83 8.6 47.5 49 -1.4 29.4 0 0
10:32 1012 29.88 841 24.83 8.6 47.4 45 -2.5 27.4 0 0
10:33 1012 29.88 841 24.83 8.5 47.2 46 -2.4 27.8 0 0
10:34 1012 29.88 841 24.83 8.4 47 49 -1.7 28.9 0 0
10:35 1012 29.88 841 24.83 8.4 47.1 53 -0.6 31 0 0
10:36 1012 29.88 841 24.83 8.5 47.2 50 -1.4 29.6 0 0
10:37 1012 29.88 841 24.83 8.5 47.4 48 -1.8 28.7 0 0
10:38 1012 29.88 841 24.83 8.7 47.6 49 -1.4 29.4 0 0
10:39 1012 29.88 841 24.83 8.7 47.7 48 -1.8 28.7 0 0
10:40 1012 29.88 841 24.83 8.6 47.6 48 -1.8 28.7 0 0
10:41 1012 29.88 841 24.83 8.6 47.4 44 -2.9 26.8 0 0
10:42 1012 29.88 841 24.83 8.4 47.1 47 -2.3 27.8 0 0
10:43 1012 29.88 841 24.83 8.3 46.9 53 -0.8 30.6 0 0
10:44 1012 29.88 841 24.83 8.4 47.1 47 -2.2 28 0 0
10:45 1012 29.88 841 24.83 8.4 47.1 48 -2.1 28.3 0 0
10:46 1012 29.88 841 24.83 8.4 47.2 48 -1.8 28.8 0 0
10:47 1012 29.88 841 24.83 8.6 47.4 47 -2 28.3 0 0
10:48 1012 29.88 841 24.83 8.6 47.4 46 -2.4 27.6 0 0
10:49 1012 29.88 841 24.83 8.6 47.4 46 -2.4 27.7 0 0
10:50 1012 29.88 841 24.83 8.6 47.5 48 -1.8 28.8 0 0
10:51 1012 29.88 841 24.83 8.6 47.5 45 -2.6 27.4 0 0
10:52 1012 29.88 841 24.83 8.6 47.5 46 -2.2 28.1 0 0
10:53 1012 29.88 841 24.83 8.7 47.6 47 -1.9 28.5 0 0
10:54 1012 29.88 841 24.83 8.5 47.3 50 -1.3 29.7 0 0
10:55 1012 29.88 841 24.83 8.6 47.4 48 -1.7 28.9 0 0
10:56 1012 29.88 841 24.83 8.7 47.7 49 -1.5 29.3 0 0
10:57 1012 29.88 841 24.83 8.7 47.7 46 -2.3 27.8 0 0
10:58 1012 29.88 841 24.83 8.7 47.6 50 -1.2 29.9 0 0
10:59 1012 29.88 841 24.83 8.8 47.8 49 -1.4 29.4 0 0
11:00 1012 29.88 841 24.83 9 48.1 49 -1.1 29.9 0 0
11:01 1012 29.88 841 24.83 9.1 48.3 51 -0.4 31.3 0 0
11:02 1012 29.88 841 24.83 9.1 48.4 46 -1.8 28.8 0 0
11:03 1012 29.88 841 24.83 9.1 48.3 42 -3.1 26.5 0 0
11:04 1012 29.88 841 24.83 8.9 47.9 47 -1.9 28.5 0 0
11:05 1012 29.88 841 24.83 8.8 47.8 48 -1.5 29.2 0 0
11:06 1012 29.88 841 24.83 9 48.2 45 -2.1 28.2 0 0
11:07 1012 29.88 841 24.83 9.1 48.4 48 -1.2 29.8 0 0
11:08 1012 29.88 841 24.83 9.3 48.7 51 -0.4 31.2 0 0
11:09 1012 29.88 841 24.83 9.2 48.5 46 -1.8 28.7 0 0
11:10 1012 29.88 841 24.83 8.9 48.1 51 -0.8 30.6 0 0
11:11 1012 29.88 841 24.83 8.9 48 49 -1.1 30 0 0
11:12 1012 29.88 841 24.83 8.9 47.9 49 -1.3 29.6 0 0
11:13 1012 29.88 841 24.83 8.8 47.9 47 -1.7 28.9 0 0
11:14 1012 29.88 841 24.83 8.9 47.9 48 -1.7 29 0 0
11:15 1012 29.88 841 24.83 9 48.1 50 -0.9 30.3 0 0
11:16 1012 29.88 841 24.83 9.1 48.3 48 -1.2 29.8 0 0
11:17 1012 29.88 841 24.83 9.1 48.4 46 -1.9 28.6 0 0
11:18 1012 29.88 841 24.83 9.1 48.4 51 -0.4 31.3 0 0
11:19 1012 29.88 841 24.83 9.1 48.5 48 -1.2 29.8 0 0
11:20 1012 29.88 841 24.83 9.3 48.8 43 -2.5 27.4 0 0
11:21 1012 29.88 841 24.83 9.3 48.7 46 -1.8 28.7 0 0
11:22 1012 29.88 841 24.83 9.2 48.6 45 -2 28.4 0 0
11:23 1012 29.88 841 24.83 9 48.2 44 -2.5 27.6 0 0
11:24 1012 29.88 841 24.83 8.9 48 45 -2.4 27.7 0 0
11:25 1012 29.88 841 24.83 9 48.1 47 -1.7 28.9 0 0
11:26 1012 29.88 841 24.83 9 48.2 46 -1.8 28.7 0 0
11:27 1012 29.88 841 24.83 9 48.2 45 -2.3 27.9 0 0
11:28 1012 29.88 841 24.83 9.1 48.3 51 -0.6 31 0 0
11:29 1012 29.88 841 24.83 9.3 48.7 45 -2 28.4 0 0
11:30 1012 29.88 841 24.83 9.2 48.6 46 -1.6 29.1 0 0
11:31 1012 29.88 841 24.83 9.4 48.9 50 -0.6 30.9 0 0
11:32 1012 29.88 841 24.83 9.5 49.1 47 -1.1 30 0 0
11:33 1012 29.88 841 24.83 9.7 49.4 46 -1.5 29.3 0 0
11:34 1012 29.88 841 24.83 9.5 49 45 -1.9 28.6 0 0
11:35 1012 29.88 841 24.83 9.3 48.7 45 -1.9 28.6 0 0
11:36 1012 29.88 841 24.83 9.4 48.8 46 -1.7 29 0 0
11:37 1012 29.88 841 24.83 9.2 48.6 44 -2.3 27.9 0 0
11:38 1012 29.88 841 24.83 9.2 48.6 51 -0.3 31.5 0 0
11:39 1012 29.88 841 24.83 9.3 48.8 50 -0.6 30.9 0 0
11:40 1011 29.85 841 24.83 9.4 48.9 45 -1.8 28.8 0 0
11:41 1011 29.85 841 24.83 9.2 48.6 51 -0.4 31.4 0 0
11:42 1012 29.88 841 24.83 9.5 49.1 47 -1.3 29.7 0 0
11:43 1012 29.88 841 24.83 9.7 49.4 44 -1.9 28.6 0 0
11:44 1012 29.88 841 24.83 9.5 49 47 -1.4 29.6 0 0
11:45 1012 29.88 841 24.83 9.2 48.6 46 -1.8 28.8 0 0
11:46 1012 29.88 841 24.83 9.2 48.5 50 -0.7 30.8 0 0
11:47 1011 29.85 841 24.83 9.3 48.7 46 -1.8 28.7 0 0
11:48 1012 29.88 841 24.83 9.3 48.7 51 -0.2 31.6 0 0
11:49 1011 29.85 841 24.83 9.4 48.9 46 -1.6 29.1 0 0
11:50 1011 29.85 841 24.83 9.3 48.8 50 -0.6 30.9 0 0
11:51 1011 29.85 841 24.83 9.4 48.9 49 -0.8 30.6 0 0
11:52 1011 29.85 841 24.83 9.6 49.3 42 -2.5 27.4 0 0
11:53 1011 29.85 841 24.83 9.4 48.9 43 -2.6 27.3 0 0
11:54 1011 29.85 841 24.83 9 48.2 45 -2.2 28.1 0 0
11:55 1011 29.85 841 24.83 9 48.1 50 -0.9 30.4 0 0
11:56 1011 29.85 841 24.83 9.2 48.6 44 -2.2 28 0 0
11:57 1011 29.85 841 24.83 9.2 48.6 45 -2.1 28.1 0 0
11:58 1011 29.85 841 24.83 9.3 48.7 44 -2.3 27.9 0 0
11:59 1011 29.85 841 24.83 9.3 48.8 39 -3.7 25.3 0 0
12:00 1011 29.85 841 24.83 9.3 48.7 39 -3.9 25 0 0
12:01 1011 29.85 841 24.83 9.2 48.6 44 -2.2 28 0 0
12:02 1011 29.85 841 24.83 9.3 48.8 42 -2.8 27 0 0
12:03 1011 29.85 841 24.83 9.6 49.2 45 -1.8 28.8 0 0
12:04 1011 29.85 841 24.83 9.8 49.6 42 -2.4 27.8 0 0
12:05 1011 29.85 841 24.83 9.9 49.8 46 -1.2 29.8 0 0
12:06 1011 29.85 841 24.83 10 50 43 -2.1 28.2 0 0
12:07 1011 29.85 841 24.83 10 50 44 -1.6 29 0 0
12:08 1011 29.85 841 24.83 9.9 49.8 40 -3 26.6 0 0
12:09 1011 29.85 841 24.83 9.7 49.4 40 -3.4 25.9 0 0
12:10 1011 29.85 841 24.83 9.5 49.2 42 -2.7 27.1 0 0
12:11 1011 29.85 841 24.83 9.6 49.4 45 -1.7 29 0 0
12:12 1011 29.85 841 24.83 9.7 49.4 39 -3.5 25.7 0 0
12:13 1011 29.85 841 24.83 9.7 49.4 41 -2.9 26.7 0 0
12:14 1011 29.85 841 24.83 9.8 49.7 42 -2.5 27.4 0 0
12:15 1011 29.85 841 24.83 9.8 49.7 41 -2.8 27 0 0
12:16 1011 29.85 841 24.83 9.7 49.5 40 -3.1 26.4 0 0
12:17 1011 29.85 841 24.83 9.8 49.6 40 -3.2 26.2 0 0
12:18 1011 29.85 841 24.83 9.8 49.7 41 -2.8 27 0 0
12:19 1011 29.85 841 24.83 9.8 49.7 48 -0.7 30.7 0 0
12:20 1011 29.85 841 24.83 9.9 49.7 37 -4 24.8 0 0
12:21 1011 29.85 840 24.81 9.6 49.2 38 -3.9 24.9 0 0
12:22 1011 29.85 840 24.81 9.5 49 43 -2.6 27.3 0 0
12:23 1011 29.85 840 24.81 9.7 49.5 43 -2.2 28.1 0 0
12:24 1011 29.85 840 24.81 10 49.9 37 -4.2 24.5 0 0
12:25 1011 29.85 840 24.81 9.9 49.9 36 -4.3 24.2 0 0
12:26 1011 29.85 840 24.81 9.8 49.7 42 -2.3 27.8 0 0
12:27 1011 29.85 840 24.81 9.9 49.8 36 -4.5 24 0 0
12:28 1011 29.85 840 24.81 10 49.9 36 -4.2 24.4 0 0
12:29 1011 29.85 840 24.81 10.1 50.2 37 -4 24.7 0 0
12:30 1011 29.85 840 24.81 10.2 50.4 39 -3.2 26.3 0 0
12:31 1011 29.85 840 24.81 10.4 50.7 35 -4.4 24.2 0 0
12:32 1011 29.85 840 24.81 10.4 50.6 44 -1.4 29.5 0 0
12:33 1011 29.85 840 24.81 10.6 51.1 42 -1.7 28.9 0 0
12:34 1011 29.85 840 24.81 10.8 51.5 34 -4.3 24.3 0 0
12:35 1011 29.85 840 24.81 10.7 51.2 40 -2.4 27.7 0 0
12:36 1011 29.85 840 24.81 10.5 50.9 37 -3.5 25.7 0 0
12:37 1011 29.85 840 24.81 10.4 50.7 35 -4.5 23.9 0 0
12:38 1011 29.85 840 24.81 10.4 50.7 35 -4.3 24.3 0 0
12:39 1011 29.85 840 24.81 10.3 50.5 38 -3.3 26 0 0
12:40 1011 29.85 840 24.81 10.1 50.2 35 -4.5 23.8 0 0
12:41 1011 29.85 840 24.81 10.2 50.3 39 -3.1 26.4 0 0
12:42 1011 29.85 840 24.81 10.2 50.3 37 -4 24.8 0 0
12:43 1011 29.85 840 24.81 10.1 50.2 36 -4.3 24.2 0 0
12:44 1011 29.85 840 24.81 10.2 50.3 39 -3.2 26.3 0 0
12:45 1011 29.85 840 24.81 10.2 50.4 36 -4 24.7 0 0
12:46 1011 29.85 840 24.81 10.2 50.4 34 -4.9 23.1 0 0
12:47 1011 29.85 840 24.81 10.1 50.2 33 -5.2 22.6 0 0
12:48 1011 29.85 840 24.81 10.2 50.3 36 -4.2 24.5 0 0
12:49 1011 29.85 840 24.81 10.3 50.5 37 -3.6 25.5 0 0
12:50 1011 29.85 840 24.81 10.4 50.7 35 -4.3 24.2 0 0
12:51 1011 29.85 840 24.81 10.5 50.8 33 -4.9 23.1 0 0
12:52 1011 29.85 840 24.81 10.5 50.9 41 -2 28.4 0 0
12:53 1011 29.85 840 24.81 10.7 51.2 35 -4.2 24.5 0 0
12:54 1011 29.85 840 24.81 10.7 51.3 35 -4.1 24.7 0 0
12:55 1011 29.85 840 24.81 10.7 51.2 34 -4.7 23.6 0 0
12:56 1011 29.85 840 24.81 10.6 51.1 33 -4.8 23.3 0 0
12:57 1011 29.85 840 24.81 10.6 51.1 36 -3.7 25.3 0 0
12:58 1011 29.85 840 24.81 10.9 51.5 35 -4.1 24.7 0 0
12:59 1011 29.85 840 24.81 11 51.8 38 -2.6 27.3 0 0
13:00 1011 29.85 840 24.81 11.1 52.1 38 -2.7 27.1 0 0
13:01 1011 29.85 840 24.81 11.1 51.9 33 -4.4 24.1 0 0
13:02 1011 29.85 840 24.81 11 51.8 37 -2.9 26.7 0 0
13:03 1011 29.85 840 24.81 11 51.7 33 -4.7 23.6 0 0
13:04 1011 29.85 840 24.81 10.8 51.4 39 -2.6 27.3 0 0
13:05 1011 29.85 840 24.81 10.9 51.6 38 -2.9 26.7 0 0
13:06 1011 29.85 840 24.81 11.3 52.3 34 -3.9 25 0 0
13:07 1011 29.85 840 24.81 11.2 52.1 40 -1.8 28.7 0 0
13:08 1011 29.85 840 24.81 10.9 51.6 42 -1.6 29.1 0 0
13:09 1011 29.85 840 24.81 10.7 51.3 36 -3.8 25.1 0 0
13:10 1011 29.85 840 24.81 10.5 50.8 34 -4.7 23.5 0 0
13:11 1011 29.85 840 24.81 10.2 50.3 38 -3.4 25.8 0 0
13:12 1011 29.85 840 24.81 9.9 49.9 38 -3.8 25.2 0 0
13:13 1011 29.85 840 24.81 9.7 49.4 38 -3.8 25.2 0 0
13:14 1011 29.85 840 24.81 9.6 49.3 36 -4.5 23.8 0 0
13:15 1011 29.85 840 24.81 9.7 49.5 36 -4.8 23.4 0 0
13:16 1011 29.85 840 24.81 9.7 49.5 37 -4.2 24.5 0 0
13:17 1011 29.85 840 24.81 9.8 49.7 40 -3 26.5 0 0
13:18 1011 29.85 840 24.81 10.1 50.1 36 -4.3 24.3 0 0
13:19 1011 29.85 840 24.81 10.1 50.3 36 -4.1 24.6 0 0
13:20 1011 29.85 840 24.81 10.4 50.7 39 -3 26.7 0 0
13:21 1011 29.85 840 24.81 10.6 51.1 42 -1.9 28.7 0 0
13:22 1011 29.85 840 24.81 10.8 51.4 33 -4.9 23.1 0 0
13:23 1011 29.85 840 24.81 10.9 51.6 34 -4.3 24.2 0 0
13:24 1010 29.83 840 24.81 11 51.7 35 -3.9 24.9 0 0
13:25 1010 29.83 840 24.81 11.1 52 34 -4.3 24.3 0 0
13:26 1010 29.83 840 24.81 11.1 52 34 -4 24.9 0 0
13:27 1010 29.83 840 24.81 11 51.8 33 -4.4 24.1 0 0
13:28 1010 29.83 840 24.81 10.9 51.6 35 -4 24.9 0 0
13:29 1010 29.83 840 24.81 10.8 51.4 35 -4.1 24.6 0 0
13:30 1010 29.83 840 24.81 10.8 51.4 37 -3.1 26.4 0 0
13:31 1010 29.83 840 24.81 11.1 52 31 -5.2 22.6 0 0
13:32 1010 29.83 840 24.81 11.2 52.1 37 -2.8 27 0 0
13:33 1010 29.83 840 24.81 11.3 52.4 35 -3.4 25.9 0 0
13:34 1010 29.83 840 24.81 11.4 52.6 35 -3.3 26 0 0
13:35 1010 29.83 840 24.81 11.5 52.8 40 -1.6 29.2 0 0
13:36 1010 29.83 840 24.81 11.8 53.3 34 -3.6 25.5 0 0
13:37 1010 29.83 839 24.78 11.8 53.3 33 -3.9 25.1 0 0
13:38 1010 29.83 839 24.78 11.7 53.1 30 -5.2 22.7 0 0
13:39 1010 29.83 839 24.78 11.6 52.8 32 -4.7 23.5 0 0
13:40 1010 29.83 839 24.78 11.4 52.6 32 -4.6 23.7 0 0
13:41 1010 29.83 839 24.78 11.2 52.2 31 -5.1 22.8 0 0
13:42 1010 29.83 839 24.78 11.1 52 31 -5.2 22.6 0 0
13:43 1010 29.83 839 24.78 10.9 51.6 32 -5.1 22.7 0 0
13:44 1010 29.83 839 24.78 10.8 51.4 32 -5.1 22.9 0 0
13:45 1010 29.83 839 24.78 10.9 51.6 32 -5 22.9 0 0
13:46 1010 29.83 839 24.78 10.8 51.5 29 -6.3 20.6 0 0
13:47 1010 29.83 839 24.78 10.7 51.2 30 -6 21.1 0 0
13:48 1010 29.83 839 24.78 10.5 51 32 -5.5 22.1 0 0
13:49 1010 29.83 839 24.78 10.6 51 36 -4 24.9 0 0
13:50 1010 29.83 839 24.78 10.8 51.5 36 -3.6 25.5 0 0
13:51 1010 29.83 839 24.78 11.2 52.2 35 -3.4 25.8 0 0
13:52 1010 29.83 839 24.78 11.7 53.1 34 -3.5 25.7 0 0
13:53 1010 29.83 839 24.78 11.8 53.2 30 -5.1 22.8 0 0
13:54 1010 29.83 839 24.78 11.4 52.6 29 -5.8 21.6 0 0
13:55 1010 29.83 839 24.78 11.4 52.5 30 -5.5 22.1 0 0
13:56 1010 29.83 839 24.78 11.6 52.8 31 -5 22.9 0 0
13:57 1010 29.83 839 24.78 11.8 53.2 33 -4 24.8 0 0
13:58 1010 29.83 839 24.78 11.9 53.4 29 -5.5 22.2 0 0
13:59 1010 29.83 839 24.78 11.8 53.2 29 -5.7 21.7 0 0
14:00 1010 29.83 839 24.78 11.8 53.2 31 -4.7 23.5 0 0
14:01 1010 29.83 839 24.78 11.9 53.4 32 -4.4 24.1 0 0
14:02 1010 29.83 839 24.78 12.2 53.9 33 -3.7 25.4 0 0
14:03 1010 29.83 839 24.78 12.5 54.4 39 -1.2 29.8 0 0
14:04 1010 29.83 839 24.78 12.6 54.7 33 -3.2 26.3 0 0
14:05 1010 29.83 839 24.78 12.5 54.6 29 -5 23.1 0 0
14:06 1010 29.83 839 24.78 12.2 54 32 -4.1 24.6 0 0
14:07 1010 29.83 839 24.78 12 53.5 30 -5 23.1 0 0
14:08 1010 29.83 839 24.78 11.9 53.4 29 -5.4 22.3 0 0
14:09 1010 29.83 839 24.78 11.8 53.2 30 -5.4 22.2 0 0
14:10 1010 29.83 839 24.78 11.5 52.8 31 -5.1 22.8 0 0
14:11 1010 29.83 839 24.78 11.3 52.3 32 -4.8 23.3 0 0
14:12 1010 29.83 839 24.78 11.4 52.5 34 -3.7 25.4 0 0
14:13 1010 29.83 839 24.78 11.6 52.8 36 -3 26.6 0 0
14:14 1010 29.83 839 24.78 11.8 53.2 30 -5.3 22.5 0 0
14:15 1010 29.83 839 24.78 11.8 53.3 29 -5.8 21.6 0 0
14:16 1010 29.83 839 24.78 11.7 53.1 32 -4.2 24.4 0 0
14:17 1010 29.83 839 24.78 11.8 53.2 30 -5.4 22.3 0 0
14:18 1010 29.83 839 24.78 11.8 53.2 29 -5.8 21.5 0 0
14:19 1010 29.83 839 24.78 11.8 53.2 28 -5.9 21.4 0 0
14:20 1010 29.83 839 24.78 11.8 53.2 29 -5.6 22 0 0
14:21 1010 29.83 839 24.78 12 53.5 26 -6.7 19.9 0 0
14:22 1010 29.83 839 24.78 12 53.6 32 -4.3 24.3 0 0
14:23 1010 29.83 839 24.78 12 53.6 30 -5.1 22.7 0 0
14:24 1010 29.83 839 24.78 12.2 53.9 28 -5.7 21.8 0 0
14:25 1010 29.83 839 24.78 12 53.6 33 -3.8 25.1 0 0
14:26 1010 29.83 839 24.78 12 53.5 30 -5 23.1 0 0
14:27 1010 29.83 839 24.78 12.1 53.8 27 -6.5 20.3 0 0
14:28 1010 29.83 839 24.78 12.1 53.7 26 -6.6 20.1 0 0
14:29 1010 29.83 839 24.78 11.9 53.5 29 -5.5 22.1 0 0
14:30 1010 29.83 839 24.78 11.8 53.2 27 -6.3 20.6 0 0
14:31 1010 29.83 839 24.78 11.7 53 30 -5.3 22.4 0 0
14:32 1010 29.83 839 24.78 11.6 52.9 32 -4.4 24.1 0 0
14:33 1010 29.83 839 24.78 11.5 52.8 29 -5.8 21.6 0 0
14:34 1010 29.83 839 24.78 11.4 52.5 33 -4.2 24.4 0 0
14:35 1010 29.83 839 24.78 11.3 52.3 33 -4.4 24.1 0 0
14:36 1010 29.83 839 24.78 11.3 52.3 33 -4.3 24.2 0 0
14:37 1010 29.83 839 24.78 11.4 52.5 30 -5.6 21.9 0 0
14:38 1010 29.83 839 24.78 11.5 52.8 37 -2.7 27.1 0 0
14:39 1010 29.83 839 24.78 11.9 53.4 36 -2.5 27.4 0 0
14:40 1010 29.83 839 24.78 12.1 53.7 36 -2.4 27.6 0 0
14:41 1010 29.83 839 24.78 12.2 53.9 27 -6.1 20.9 0 0
14:42 1010 29.83 839 24.78 12 53.5 28 -5.8 21.6 0 0
14:43 1010 29.83 839 24.78 12 53.5 27 -6.3 20.6 0 0
14:44 1010 29.83 839 24.78 12 53.5 27 -6.2 20.9 0 0
14:45 1010 29.83 839 24.78 11.8 53.2 28 -6 21.1 0 0
14:46 1010 29.83 839 24.78 11.7 53.1 30 -5.2 22.6 0 0
14:47 1010 29.83 839 24.78 11.8 53.2 31 -4.9 23.2 0 0
14:48 1010 29.83 839 24.78 11.7 53.1 28 -6.4 20.5 0 0
14:49 1010 29.83 839 24.78 11.4 52.4 28 -6.3 20.7 0 0
14:50 1010 29.83 839 24.78 11.3 52.3 32 -4.9 23.3 0 0
14:51 1010 29.83 839 24.78 11.5 52.8 32 -4.5 23.9 0 0
14:52 1010 29.83 839 24.78 12 53.7 30 -4.8 23.4 0 0
14:53 1010 29.83 839 24.78 12.2 54 29 -5.1 22.8 0 0
14:54 1010 29.83 839 24.78 12.1 53.9 29 -5.4 22.4 0 0
14:55 1010 29.83 839 24.78 11.9 53.5 29 -5.3 22.4 0 0
14:56 1010 29.83 839 24.78 11.5 52.8 29 -6 21.3 0 0
14:57 1010 29.83 839 24.78 11.3 52.3 30 -5.5 22.1 0 0
14:58 1010 29.83 839 24.78 11.1 52 30 -5.9 21.4 0 0
14:59 1010 29.83 839 24.78 11 51.7 29 -6.2 20.9 0 0
15:00 1010 29.83 839 24.78 10.9 51.7 31 -5.5 22.1 0 0
15:01 1010 29.83 839 24.78 10.9 51.6 32 -5 23 0 0
15:02 1010 29.83 839 24.78 11 51.8 33 -4.6 23.8 0 0
15:03 1010 29.83 839 24.78 11.1 51.9 29 -6.1 21.1 0 0
15:04 1010 29.83 839 24.78 11 51.9 28 -7 19.4 0 0
15:05 1010 29.83 839 24.78 10.9 51.6 29 -6.3 20.7 0 0
15:06 1010 29.83 839 24.78 10.8 51.5 29 -6.6 20.1 0 0
15:07 1010 29.83 839 24.78 10.9 51.6 30 -6.2 20.9 0 0
15:08 1010 29.83 839 24.78 11 51.8 28 -6.6 20.2 0 0
15:09 1010 29.83 839 24.78 11.1 52 30 -5.9 21.3 0 0
15:10 1009 29.8 839 24.78 11.2 52.2 29 -6.3 20.6 0 0
15:11 1010 29.83 839 24.78 11.4 52.5 29 -5.8 21.6 0 0
15:12 1009 29.8 839 24.78 11.6 52.9 27 -6.8 19.7 0 0
15:13 1009 29.8 839 24.78 11.6 52.9 28 -6.1 21 0 0
15:14 1009 29.8 839 24.78 11.5 52.7 29 -6.1 21.1 0 0
15:15 1009 29.8 839 24.78 11.4 52.6 32 -4.8 23.3 0 0
15:16 1009 29.8 839 24.78 11.5 52.7 28 -6.5 20.2 0 0
15:17 1010 29.83 839 24.78 11.6 53 28 -6.4 20.4 0 0
15:18 1009 29.8 839 24.78 11.7 53 25 -7.5 18.5 0 0
15:19 1009 29.8 839 24.78 11.8 53.2 28 -6.3 20.6 0 0
15:20 1009 29.8 839 24.78 11.7 53 24 -8 17.5 0 0
15:21 1009 29.8 839 24.78 11.6 52.8 27 -6.6 20.1 0 0
15:22 1009 29.8 839 24.78 11.4 52.5 25 -7.9 17.8 0 0
15:23 1009 29.8 839 24.78 11.3 52.3 30 -5.7 21.8 0 0
15:24 1009 29.8 839 24.78 11.1 52 29 -6.1 20.9 0 0
15:25 1009 29.8 839 24.78 11.1 51.9 30 -5.9 21.3 0 0
15:26 1009 29.8 839 24.78 11.1 52 28 -6.8 19.7 0 0
15:27 1009 29.8 839 24.78 11.2 52.1 29 -6.1 21.1 0 0
15:28 1009 29.8 839 24.78 11.3 52.3 30 -5.4 22.2 0 0
15:29 1009 29.8 839 24.78 11.3 52.4 29 -6.1 21 0 0
15:30 1009 29.8 839 24.78 11.3 52.3 32 -4.9 23.2 0 0
15:31 1009 29.8 839 24.78 11.3 52.3 33 -4.3 24.3 0 0
15:32 1009 29.8 839 24.78 11.3 52.3 29 -6 21.2 0 0
15:33 1009 29.8 839 24.78 11.3 52.3 28 -6.6 20.2 0 0
15:34 1009 29.8 839 24.78 11.2 52.1 28 -6.8 19.7 0 0
15:35 1009 29.8 839 24.78 11.1 51.9 30 -5.8 21.5 0 0
15:36 1009 29.8 839 24.78 11.1 51.9 30 -6 21.2 0 0
15:37 1009 29.8 839 24.78 11 51.8 30 -6 21.2 0 0
15:38 1009 29.8 839 24.78 11 51.7 35 -4 24.9 0 0
15:39 1009 29.8 839 24.78 11.1 51.9 36 -3.4 25.8 0 0
15:40 1009 29.8 839 24.78 11.1 52 34 -4.3 24.2 0 0
15:41 1009 29.8 839 24.78 11.1 51.9 33 -4.5 23.9 0 0
15:42 1009 29.8 839 24.78 11 51.7 37 -3.1 26.4 0 0
15:43 1009 29.8 839 24.78 10.9 51.7 29 -6.2 20.8 0 0
15:44 1009 29.8 839 24.78 10.9 51.6 33 -4.8 23.4 0 0
15:45 1009 29.8 839 24.78 10.8 51.4 34 -4.3 24.2 0 0
15:46 1009 29.8 839 24.78 10.8 51.4 32 -5 23 0 0
15:47 1009 29.8 839 24.78 10.8 51.4 32 -5.2 22.6 0 0
15:48 1009 29.8 839 24.78 10.8 51.4 30 -6.3 20.7 0 0
15:49 1009 29.8 839 24.78 10.7 51.2 33 -4.8 23.4 0 0
15:50 1009 29.8 839 24.78 10.7 51.3 32 -5.1 22.8 0 0
15:51 1009 29.8 839 24.78 10.7 51.3 28 -7.2 19 0 0
15:52 1009 29.8 839 24.78 10.7 51.3 27 -7.5 18.4 0 0
15:53 1009 29.8 839 24.78 10.6 51.1 29 -6.5 20.4 0 0
15:54 1009 29.8 839 24.78 10.6 51.2 30 -6.1 21 0 0
15:55 1009 29.8 839 24.78 10.6 51.1 31 -5.8 21.6 0 0
15:56 1009 29.8 839 24.78 10.6 51.1 31 -5.9 21.3 0 0
15:57 1009 29.8 839 24.78 10.6 51.1 27 -7.4 18.6 0 0
15:58 1009 29.8 838 24.75 10.6 51.1 28 -7.3 18.8 0 0
15:59 1009 29.8 839 24.78 10.7 51.2 28 -7.2 19 0 0
16:00 1009 29.8 839 24.78 10.7 51.3 27 -7.4 18.7 0 0
16:01 1009 29.8 839 24.78 10.8 51.4 28 -7 19.5 0 0
16:02 1009 29.8 838 24.75 10.8 51.4 32 -5.3 22.5 0 0
16:03 1009 29.8 838 24.75 10.8 51.5 31 -5.7 21.8 0 0
16:04 1009 29.8 838 24.75 10.8 51.5 29 -6.4 20.4 0 0
16:05 1009 29.8 838 24.75 10.8 51.5 29 -6.3 20.6 0 0
16:06 1009 29.8 838 24.75 10.8 51.4 27 -7.4 18.8 0 0
16:07 1009 29.8 838 24.75 10.8 51.4 31 -5.9 21.4 0 0
16:08 1009 29.8 838 24.75 10.7 51.3 30 -5.9 21.4 0 0
16:09 1009 29.8 838 24.75 10.8 51.4 30 -6.1 21.1 0 0
16:10 1009 29.8 838 24.75 10.8 51.5 30 -6.3 20.7 0 0
16:11 1009 29.8 838 24.75 10.8 51.4 28 -7.1 19.2 0 0
16:12 1009 29.8 838 24.75 10.8 51.4 33 -4.8 23.4 0 0
16:13 1009 29.8 838 24.75 10.8 51.5 30 -6.2 20.9 0 0
16:14 1009 29.8 838 24.75 10.8 51.4 27 -7.5 18.6 0 0
16:15 1009 29.8 838 24.75 10.8 51.4 30 -5.9 21.4 0 0
16:16 1009 29.8 838 24.75 10.8 51.4 30 -6.1 21 0 0
16:17 1009 29.8 838 24.75 10.8 51.4 26 -7.9 17.8 0 0
16:18 1009 29.8 838 24.75 10.7 51.3 27 -7.4 18.7 0 0
16:19 1009 29.8 838 24.75 10.7 51.2 26 -8 17.6 0 0
16:20 1009 29.8 838 24.75 10.7 51.2 28 -7.2 19 0 0
16:21 1009 29.8 838 24.75 10.7 51.2 29 -6.6 20.2 0 0
16:22 1009 29.8 838 24.75 10.7 51.2 28 -7.2 19 0 0
16:23 1009 29.8 838 24.75 10.7 51.3 26 -8 17.6 0 0
16:24 1009 29.8 838 24.75 10.7 51.3 28 -7.3 18.9 0 0
16:25 1009 29.8 838 24.75 10.7 51.3 30 -6.3 20.6 0 0
16:26 1009 29.8 838 24.75 10.8 51.4 26 -7.8 18 0 0
16:27 1009 29.8 838 24.75 10.8 51.4 25 -8.6 16.5 0 0
16:28 1009 29.8 838 24.75 10.7 51.3 28 -6.9 19.6 0 0
16:29 1009 29.8 838 24.75 10.7 51.3 28 -7.1 19.3 0 0
16:30 1009 29.8 838 24.75 10.7 51.3 29 -6.5 20.3 0 0
16:31 1009 29.8 838 24.75 10.7 51.3 29 -6.6 20.2 0 0
16:32 1009 29.8 838 24.75 10.7 51.2 29 -6.7 19.9 0 0
16:33 1009 29.8 838 24.75 10.7 51.2 28 -6.9 19.6 0 0
16:34 1009 29.8 838 24.75 10.6 51.1 27 -7.6 18.3 0 0
16:35 1009 29.8 838 24.75 10.6 51 27 -7.5 18.6 0 0
16:36 1009 29.8 838 24.75 10.6 51 29 -6.8 19.7 0 0
16:37 1009 29.8 838 24.75 10.5 50.9 29 -6.8 19.8 0 0
16:38 1009 29.8 838 24.75 10.5 50.9 29 -7 19.4 0 0
16:39 1009 29.8 839 24.78 10.5 50.9 28 -7.3 18.9 0 0
16:40 1009 29.8 838 24.75 10.5 50.9 30 -6.4 20.5 0 0
16:41 1009 29.8 838 24.75 10.5 50.9 26 -8 17.7 0 0
16:42 1009 29.8 838 24.75 10.5 50.8 27 -8 17.7 0 0
16:43 1009 29.8 838 24.75 10.5 50.8 28 -7.1 19.2 0 0
16:44 1009 29.8 838 24.75 10.5 50.8 29 -6.9 19.5 0 0
16:45 1009 29.8 838 24.75 10.5 50.9 27 -7.9 17.8 0 0
16:46 1009 29.8 838 24.75 10.5 50.9 32 -5.7 21.8 0 0
16:47 1009 29.8 838 24.75 10.4 50.7 29 -6.9 19.6 0 0
16:48 1009 29.8 839 24.78 10.4 50.7 30 -6.3 20.7 0 0
16:49 1009 29.8 839 24.78 10.3 50.6 28 -7.3 18.9 0 0
16:50 1009 29.8 838 24.75 10.3 50.5 31 -6.1 21.1 0 0
16:51 1009 29.8 838 24.75 10.2 50.4 27 -7.7 18.1 0 0
16:52 1009 29.8 838 24.75 10.2 50.4 29 -7 19.5 0 0
16:53 1009 29.8 838 24.75 10.2 50.3 30 -6.7 20 0 0
16:54 1009 29.8 838 24.75 10.2 50.3 27 -8.1 17.4 0 0
16:55 1009 29.8 838 24.75 10.1 50.3 31 -6.2 20.8 0 0
16:56 1009 29.8 838 24.75 10.1 50.2 26 -8.4 16.9 0 0
16:57 1009 29.8 838 24.75 10.1 50.2 26 -8.6 16.5 0 0
16:58 1009 29.8 838 24.75 10.1 50.2 26 -8.7 16.3 0 0
16:59 1009 29.8 838 24.75 10.1 50.2 30 -6.8 19.7 0 0
17:00 1009 29.8 838 24.75 10.1 50.2 28 -7.7 18.1 0 0
17:01 1009 29.8 838 24.75 10.1 50.1 32 -6.1 21.1 0 0
17:02 1009 29.8 838 24.75 10.1 50.1 24 -9.4 15.1 0 0
17:03 1009 29.8 838 24.75 10.1 50.1 26 -8.6 16.6 0 0
17:04 1009 29.8 838 24.75 10.1 50.1 28 -7.5 18.5 0 0
17:05 1009 29.8 838 24.75 10.1 50.2 31 -6.3 20.6 0 0
17:06 1009 29.8 838 24.75 10 50.1 30 -6.7 20 0 0
17:07 1009 29.8 838 24.75 10 50 27 -8.2 17.3 0 0
17:08 1009 29.8 838 24.75 10 50 27 -8.3 17.1 0 0
17:09 1009 29.8 839 24.78 10 50.1 26 -8.8 16.1 0 0
17:10 1009 29.8 839 24.78 10.1 50.1 25 -9.3 15.2 0 0
17:11 1009 29.8 839 24.78 10.2 50.3 26 -8.5 16.8 0 0
17:12 1009 29.8 839 24.78 10.2 50.3 25 -8.8 16.2 0 0
17:13 1009 29.8 839 24.78 10.2 50.4 25 -8.7 16.3 0 0
17:14 1009 29.8 839 24.78 10.2 50.4 25 -8.7 16.3 0 0
17:15 1009 29.8 839 24.78 10.2 50.4 28 -7.4 18.6 0 0
17:16 1009 29.8 839 24.78 10.2 50.4 26 -8.6 16.5 0 0
17:17 1009 29.8 839 24.78 10.2 50.4 25 -9.1 15.5 0 0
17:18 1009 29.8 839 24.78 10.3 50.5 26 -8.5 16.7 0 0
17:19 1009 29.8 839 24.78 10.3 50.5 29 -7 19.3 0 0
17:20 1009 29.8 839 24.78 10.3 50.5 30 -6.7 19.9 0 0
17:21 1009 29.8 839 24.78 10.3 50.6 26 -8.1 17.4 0 0
17:22 1009 29.8 839 24.78 10.4 50.6 28 -7.2 19 0 0
17:23 1009 29.8 839 24.78 10.4 50.7 26 -8.4 16.9 0 0
17:24 1009 29.8 839 24.78 10.4 50.6 30 -6.6 20.2 0 0
17:25 1009 29.8 839 24.78 10.4 50.7 32 -5.6 22 0 0
17:26 1009 29.8 839 24.78 10.4 50.7 29 -6.7 19.9 0 0
17:27 1009 29.8 839 24.78 10.4 50.6 28 -7.5 18.6 0 0
17:28 1009 29.8 839 24.78 10.4 50.7 27 -7.7 18.1 0 0
17:29 1009 29.8 839 24.78 10.4 50.7 26 -8.4 16.9 0 0
17:30 1009 29.8 839 24.78 10.4 50.7 25 -8.6 16.5 0 0
17:31 1009 29.8 839 24.78 10.4 50.8 25 -8.7 16.3 0 0
17:32 1009 29.8 839 24.78 10.5 50.8 31 -5.9 21.4 0 0
17:33 1009 29.8 839 24.78 10.5 50.8 29 -7 19.5 0 0
17:34 1009 29.8 839 24.78 10.4 50.8 27 -8 17.6 0 0
17:35 1009 29.8 839 24.78 10.5 50.8 35 -4.2 24.5 0 0
17:36 1009 29.8 839 24.78 10.5 50.8 35 -4.5 23.9 0 0
17:37 1009 29.8 839 24.78 10.4 50.8 35 -4.4 24.1 0 0
17:38 1009 29.8 839 24.78 10.5 50.8 34 -4.6 23.7 0 0
17:39 1010 29.83 839 24.78 10.4 50.8 31 -6 21.2 0 0
17:40 1010 29.83 839 24.78 10.4 50.7 31 -6 21.2 0 0
17:41 1010 29.83 839 24.78 10.3 50.6 31 -6.1 21 0 0
17:42 1010 29.83 839 24.78 10.3 50.5 34 -4.9 23.2 0 0
17:43 1010 29.83 839 24.78 10.2 50.3 37 -3.8 25.2 0 0
17:44 1010 29.83 839 24.78 10.1 50.1 34 -5.3 22.5 0 0
17:45 1010 29.83 839 24.78 9.9 49.8 33 -5.8 21.6 0 0
17:46 1010 29.83 839 24.78 9.7 49.5 32 -6.2 20.8 0 0
17:47 1010 29.83 839 24.78 9.7 49.4 37 -4.4 24 0 0
17:48 1010 29.83 839 24.78 9.6 49.3 35 -5.1 22.8 0 0
17:49 1010 29.83 839 24.78 9.5 49.1 37 -4.3 24.2 0 0
17:50 1010 29.83 839 24.78 9.5 49 37 -4.3 24.2 0 0
17:51 1010 29.83 839 24.78 9.3 48.8 38 -4.3 24.2 0 0
17:52 1010 29.83 839 24.78 9.3 48.7 38 -4.4 24.1 0 0
17:53 1010 29.83 839 24.78 9.2 48.5 41 -3.5 25.7 0 0
17:54 1010 29.83 839 24.78 9 48.2 41 -3.7 25.4 0 0
17:55 1010 29.83 839 24.78 8.9 47.9 39 -4.2 24.4 0 0
17:56 1010 29.83 839 24.78 8.8 47.8 33 -6.7 20 0 0
17:57 1010 29.83 839 24.78 8.8 47.9 32 -7 19.5 0 0
17:58 1010 29.83 839 24.78 8.9 48 33 -6.4 20.5 0 0
17:59 1010 29.83 839 24.78 8.9 48 38 -4.7 23.6 0 0
18:00 1010 29.83 839 24.78 8.9 48 27 -9 15.8 0 0
18:01 1010 29.83 839 24.78 9 48.2 26 -9.7 14.6 0 0
18:02 1010 29.83 839 24.78 9.1 48.3 26 -9.4 15.1 0 0
18:03 1010 29.83 839 24.78 9.1 48.3 25 -9.9 14.1 0 0
18:04 1010 29.83 839 24.78 9.1 48.4 29 -7.8 17.9 0 0
18:05 1010 29.83 839 24.78 9.1 48.4 24 -10.6 13 0 0
18:06 1010 29.83 839 24.78 9.3 48.7 22 -11.2 11.8 0 0
18:07 1010 29.83 839 24.78 9.4 48.9 22 -11.1 12.1 0 0
18:08 1010 29.83 839 24.78 9.3 48.8 20 -12.2 10 0 0
18:09 1010 29.83 839 24.78 9.2 48.6 24 -10.2 13.6 0 0
18:10 1010 29.83 839 24.78 9.1 48.4 22 -11.7 11 0 0
18:11 1010 29.83 839 24.78 9.1 48.4 22 -11.6 11.2 0 0
18:12 1010 29.83 839 24.78 9 48.3 25 -9.9 14.3 0 0
18:13 1010 29.83 839 24.78 9.1 48.3 23 -11.2 11.8 0 0
18:14 1010 29.83 839 24.78 9.2 48.5 25 -9.8 14.4 0 0
18:15 1010 29.83 839 24.78 9.1 48.4 24 -10.3 13.4 0 0
18:16 1010 29.83 839 24.78 9.1 48.3 25 -9.8 14.4 0 0
18:17 1010 29.83 839 24.78 8.9 48.1 29 -8 17.7 0 0
18:18 1010 29.83 839 24.78 8.8 47.8 32 -6.9 19.5 0 0
18:19 1010 29.83 839 24.78 8.6 47.5 32 -7 19.4 0 0
18:20 1010 29.83 839 24.78 8.5 47.3 30 -7.9 17.7 0 0
18:21 1010 29.83 839 24.78 8.5 47.2 27 -9.4 15.1 0 0
18:22 1010 29.83 839 24.78 8.5 47.4 28 -9.1 15.6 0 0
18:23 1010 29.83 839 24.78 8.6 47.4 29 -8.6 16.4 0 0
18:24 1010 29.83 839 24.78 8.6 47.4 27 -9.5 14.9 0 0
18:25 1010 29.83 839 24.78 8.7 47.6 27 -9.5 14.9 0 0
18:26 1010 29.83 839 24.78 8.7 47.7 26 -9.8 14.3 0 0
18:27 1010 29.83 839 24.78 8.8 47.8 26 -9.9 14.3 0 0
18:28 1010 29.83 839 24.78 8.8 47.9 27 -9.3 15.3 0 0
18:29 1010 29.83 839 24.78 8.8 47.8 27 -9.2 15.5 0 0
18:30 1010 29.83 839 24.78 8.7 47.7 30 -8 17.7 0 0
18:31 1010 29.83 839 24.78 8.7 47.6 27 -9.3 15.3 0 0
18:32 1010 29.83 839 24.78 8.7 47.6 27 -9.3 15.2 0 0
18:33 1010 29.83 839 24.78 8.7 47.7 29 -8.3 17 0 0
18:34 1010 29.83 839 24.78 8.6 47.5 32 -7.2 19.1 0 0
18:35 1010 29.83 839 24.78 8.4 47.1 32 -7.3 18.8 0 0
18:36 1010 29.83 839 24.78 8.3 46.9 29 -8.6 16.5 0 0
18:37 1010 29.83 839 24.78 8.3 46.9 30 -8.3 17.1 0 0
18:38 1010 29.83 839 24.78 8.3 46.9 28 -9 15.8 0 0
18:39 1010 29.83 839 24.78 8.3 46.9 27 -9.5 14.8 0 0
18:40 1010 29.83 839 24.78 8.4 47.2 25 -10.7 12.8 0 0
18:41 1010 29.83 839 24.78 8.5 47.4 28 -8.8 16.1 0 0
18:42 1010 29.83 839 24.78 8.4 47.2 29 -8.5 16.7 0 0
18:43 1010 29.83 839 24.78 8.3 47 29 -8.6 16.6 0 0
18:44 1010 29.83 839 24.78 8.2 46.8 32 -7.7 18.2 0 0
18:45 1010 29.83 839 24.78 8.2 46.7 30 -8.3 17.1 0 0
18:46 1010 29.83 839 24.78 8.1 46.6 32 -7.7 18.2 0 0
18:47 1010 29.83 839 24.78 8 46.4 31 -8 17.7 0 0
18:48 1010 29.83 839 24.78 8 46.3 31 -8.3 17.1 0 0
18:49 1010 29.83 839 24.78 8.1 46.5 28 -9.4 15.1 0 0
18:50 1010 29.83 839 24.78 8.1 46.6 30 -8.6 16.5 0 0
18:51 1010 29.83 839 24.78 8.1 46.6 31 -8.1 17.4 0 0
18:52 1010 29.83 839 24.78 8.1 46.5 31 -8.2 17.2 0 0
18:53 1010 29.83 839 24.78 8.1 46.5 31 -7.9 17.7 0 0
18:54 1010 29.83 839 24.78 8 46.4 32 -7.8 18 0 0
18:55 1010 29.83 839 24.78 8 46.3 34 -7.1 19.2 0 0
18:56 1010 29.83 839 24.78 7.8 46.1 33 -7.6 18.3 0 0
18:57 1010 29.83 839 24.78 7.8 46 33 -7.4 18.6 0 0
18:58 1010 29.83 839 24.78 7.7 45.8 36 -6.4 20.5 0 0
18:59 1010 29.83 839 24.78 7.5 45.5 37 -6.4 20.4 0 0
19:00 1010 29.83 839 24.78 7.4 45.3 37 -6.4 20.5 0 0
19:01 1010 29.83 839 24.78 7.3 45.2 39 -5.9 21.4 0 0
19:02 1010 29.83 839 24.78 7.2 45 40 -5.6 21.9 0 0
19:03 1010 29.83 839 24.78 7.2 44.9 41 -5.3 22.4 0 0
19:04 1010 29.83 839 24.78 7.1 44.8 39 -6 21.2 0 0
19:05 1010 29.83 839 24.78 7.1 44.7 37 -6.6 20.2 0 0
19:06 1010 29.83 839 24.78 7.1 44.7 38 -6.1 20.9 0 0
19:07 1010 29.83 839 24.78 7.1 44.7 38 -6.4 20.4 0 0
19:08 1010 29.83 839 24.78 7.1 44.7 39 -6 21.2 0 0
19:09 1010 29.83 839 24.78 7 44.6 38 -6.4 20.4 0 0
19:10 1010 29.83 839 24.78 7 44.7 38 -6.2 20.8 0 0
19:11 1010 29.83 839 24.78 7 44.6 39 -6.1 21.1 0 0
19:12 1010 29.83 839 24.78 7 44.6 41 -5.4 22.3 0 0
19:13 1010 29.83 839 24.78 6.8 44.3 41 -5.4 22.2 0 0
19:14 1010 29.83 839 24.78 6.8 44.3 41 -5.4 22.2 0 0
19:15 1010 29.83 839 24.78 6.7 44.1 41 -5.7 21.7 0 0
19:16 1010 29.83 839 24.78 6.8 44.2 41 -5.4 22.2 0 0
19:17 1010 29.83 839 24.78 6.7 44.1 43 -5.1 22.8 0 0
19:18 1010 29.83 839 24.78 6.7 44 44 -4.8 23.4 0 0
19:19 1010 29.83 839 24.78 6.6 44 42 -5.4 22.2 0 0
19:20 1010 29.83 839 24.78 6.7 44 43 -5 23.1 0 0
19:21 1010 29.83 839 24.78 6.6 43.9 43 -5.1 22.9 0 0
19:22 1010 29.83 839 24.78 6.6 43.9 44 -4.7 23.5 0 0
19:23 1010 29.83 839 24.78 6.6 43.9 42 -5.4 22.2 0 0
19:24 1010 29.83 839 24.78 6.6 43.9 42 -5.4 22.3 0 0
19:25 1010 29.83 839 24.78 6.6 44 42 -5.3 22.4 0 0
19:26 1010 29.83 839 24.78 6.6 43.9 42 -5.4 22.3 0 0
19:27 1010 29.83 839 24.78 6.6 44 42 -5.2 22.6 0 0
19:28 1010 29.83 839 24.78 6.6 43.9 43 -5.2 22.7 0 0
19:29 1010 29.83 839 24.78 6.7 44 40 -6 21.1 0 0
19:30 1010 29.83 839 24.78 6.7 44 41 -5.6 21.9 0 0
19:31 1010 29.83 839 24.78 6.7 44.1 41 -5.6 21.9 0 0
19:32 1010 29.83 839 24.78 6.7 44 42 -5.3 22.4 0 0
19:33 1010 29.83 839 24.78 6.7 44 43 -5.1 22.8 0 0
19:34 1010 29.83 839 24.78 6.6 43.9 44 -4.8 23.4 0 0
19:35 1010 29.83 839 24.78 6.6 43.9 41 -5.8 21.6 0 0
19:36 1010 29.83 839 24.78 6.7 44.1 41 -5.5 22 0 0
19:37 1010 29.83 839 24.78 6.7 44 42 -5.3 22.5 0 0
19:38 1010 29.83 839 24.78 6.6 44 41 -5.6 21.9 0 0
19:39 1010 29.83 839 24.78 6.7 44.1 41 -5.7 21.8 0 0
19:40 1010 29.83 839 24.78 6.7 44 41 -5.5 22.1 0 0
19:41 1010 29.83 839 24.78 6.7 44 41 -5.6 21.9 0 0
19:42 1010 29.83 839 24.78 6.7 44 40 -5.8 21.5 0 0
19:43 1010 29.83 839 24.78 6.7 44.1 42 -5.2 22.7 0 0
19:44 1010 29.83 839 24.78 6.7 44 41 -5.5 22.1 0 0
19:45 1010 29.83 839 24.78 6.7 44.1 39 -6.1 21 0 0
19:46 1010 29.83 839 24.78 6.8 44.2 42 -5.2 22.7 0 0
19:47 1010 29.83 839 24.78 6.7 44 43 -5.1 22.7 0 0
19:48 1010 29.83 839 24.78 6.6 43.9 42 -5.3 22.5 0 0
19:49 1010 29.83 839 24.78 6.6 43.9 43 -5.1 22.8 0 0
19:50 1010 29.83 839 24.78 6.5 43.8 42 -5.5 22 0 0
19:51 1010 29.83 839 24.78 6.5 43.8 42 -5.6 22 0 0
19:52 1010 29.83 839 24.78 6.6 43.9 41 -5.7 21.8 0 0
19:53 1010 29.83 839 24.78 6.6 43.9 42 -5.5 22.1 0 0
19:54 1010 29.83 839 24.78 6.6 43.9 43 -5 22.9 0 0
19:55 1010 29.83 839 24.78 6.5 43.7 44 -4.9 23.2 0 0
19:56 1010 29.83 839 24.78 6.4 43.5 44 -4.9 23.1 0 0
19:57 1010 29.83 839 24.78 6.4 43.5 42 -5.7 21.7 0 0
19:58 1010 29.83 839 24.78 6.5 43.8 40 -6.1 21 0 0
19:59 1010 29.83 839 24.78 6.8 44.2 38 -6.5 20.3 0 0
20:00 1010 29.83 840 24.81 6.9 44.5 40 -5.9 21.4 0 0
20:01 1010 29.83 840 24.81 6.9 44.3 41 -5.6 21.9 0 0
20:02 1010 29.83 840 24.81 6.8 44.3 40 -5.7 21.8 0 0
20:03 1010 29.83 840 24.81 6.8 44.2 39 -6.1 21.1 0 0
20:04 1010 29.83 840 24.81 6.8 44.3 40 -6 21.3 0 0
20:05 1010 29.83 840 24.81 6.8 44.2 41 -5.6 21.9 0 0
20:06 1010 29.83 840 24.81 6.7 44.1 42 -5.4 22.3 0 0
20:07 1010 29.83 840 24.81 6.6 43.9 43 -5 23 0 0
20:08 1010 29.83 840 24.81 6.4 43.6 45 -4.7 23.5 0 0
20:09 1010 29.83 840 24.81 6.3 43.3 46 -4.6 23.7 0 0
20:10 1010 29.83 840 24.81 6.2 43.1 45 -5 23 0 0
20:11 1010 29.83 840 24.81 6.2 43.1 45 -4.8 23.3 0 0
20:12 1011 29.85 840 24.81 6.2 43.1 44 -5.3 22.4 0 0
20:13 1011 29.85 840 24.81 6.2 43.1 44 -5.2 22.6 0 0
20:14 1011 29.85 840 24.81 6.2 43.2 44 -5.1 22.8 0 0
20:15 1011 29.85 840 24.81 6.2 43.1 45 -5 23 0 0
20:16 1011 29.85 840 24.81 6.1 43 44 -5.1 22.8 0 0
20:17 1011 29.85 840 24.81 6.3 43.3 41 -6.2 20.9 0 0
20:18 1011 29.85 840 24.81 6.5 43.7 43 -5.1 22.8 0 0
20:19 1011 29.85 840 24.81 6.5 43.7 42 -5.4 22.3 0 0
20:20 1011 29.85 840 24.81 6.6 43.9 43 -5.2 22.7 0 0
20:21 1011 29.85 840 24.81 6.7 44 42 -5.2 22.7 0 0
20:22 1011 29.85 840 24.81 6.6 44 44 -4.7 23.5 0 0
20:23 1011 29.85 840 24.81 6.6 43.8 42 -5.3 22.5 0 0
20:24 1011 29.85 840 24.81 6.6 43.9 40 -6.1 21.1 0 0
20:25 1011 29.85 840 24.81 6.7 44.1 38 -6.8 19.8 0 0
20:26 1011 29.85 840 24.81 6.8 44.3 38 -6.7 20 0 0
20:27 1011 29.85 840 24.81 6.9 44.5 37 -6.7 20 0 0
20:28 1011 29.85 840 24.81 7 44.7 37 -6.7 20 0 0
20:29 1011 29.85 840 24.81 7.1 44.7 39 -6 21.1 0 0
20:30 1011 29.85 840 24.81 7.1 44.7 40 -5.6 21.9 0 0
20:31 1011 29.85 840 24.81 7 44.7 37 -6.6 20.1 0 0
20:32 1011 29.85 840 24.81 7.1 44.7 38 -6.4 20.4 0 0
20:33 1011 29.85 840 24.81 7.1 44.8 39 -5.8 21.5 0 0
20:34 1011 29.85 840 24.81 7.1 44.7 39 -5.9 21.4 0 0
20:35 1011 29.85 840 24.81 7 44.6 41 -5.3 22.5 0 0
20:36 1011 29.85 840 24.81 7 44.6 41 -5.3 22.5 0 0
20:37 1011 29.85 840 24.81 6.9 44.5 43 -4.6 23.6 0 0
20:38 1011 29.85 840 24.81 6.9 44.3 43 -4.8 23.3 0 0
20:39 1011 29.85 840 24.81 6.8 44.2 44 -4.5 23.9 0 0
20:40 1011 29.85 840 24.81 6.8 44.2 45 -4.3 24.2 0 0
20:41 1011 29.85 840 24.81 6.7 44 46 -4.1 24.6 0 0
20:42 1011 29.85 840 24.81 6.6 43.8 43 -5 23 0 0
20:43 1011 29.85 840 24.81 6.6 43.8 45 -4.4 24.1 0 0
20:44 1011 29.85 840 24.81 6.6 43.8 44 -4.7 23.5 0 0
20:45 1011 29.85 840 24.81 6.6 43.8 45 -4.4 24 0 0
20:46 1011 29.85 840 24.81 6.6 43.8 47 -3.8 25.1 0 0
20:47 1011 29.85 840 24.81 6.5 43.7 48 -3.8 25.2 0 0
20:48 1011 29.85 840 24.81 6.4 43.5 48 -3.8 25.1 0 0
20:49 1011 29.85 840 24.81 6.3 43.4 47 -4.1 24.6 0 0
20:50 1011 29.85 840 24.81 6.3 43.3 45 -4.7 23.6 0 0
20:51 1011 29.85 840 24.81 6.3 43.4 47 -4.3 24.3 0 0
20:52 1011 29.85 840 24.81 6.4 43.4 47 -4.2 24.4 0 0
20:53 1011 29.85 840 24.81 6.3 43.3 47 -4.3 24.3 0 0
20:54 1011 29.85 840 24.81 6.3 43.3 46 -4.4 24.1 0 0
20:55 1011 29.85 840 24.81 6.2 43.1 46 -4.6 23.6 0 0
20:56 1011 29.85 840 24.81 6.2 43.1 46 -4.5 23.8 0 0
20:57 1011 29.85 840 24.81 6.2 43.1 48 -4.1 24.6 0 0
20:58 1011 29.85 840 24.81 6.1 42.9 48 -4 24.7 0 0
20:59 1011 29.85 840 24.81 6 42.8 49 -3.9 25 0 0
21:00 1011 29.85 840 24.81 5.9 42.6 50 -3.8 25.1 0 0
21:01 1011 29.85 840 24.81 5.8 42.5 51 -3.7 25.4 0 0
21:02 1011 29.85 840 24.81 5.7 42.3 51 -3.5 25.6 0 0
21:03 1011 29.85 840 24.81 5.6 42.1 52 -3.4 25.9 0 0
21:04 1011 29.85 840 24.81 5.5 42 53 -3.4 25.9 0 0
21:05 1011 29.85 840 24.81 5.4 41.7 53 -3.5 25.7 0 0
21:06 1011 29.85 840 24.81 5.4 41.7 53 -3.4 25.8 0 0
21:07 1011 29.85 840 24.81 5.4 41.6 53 -3.4 26 0 0
21:08 1011 29.85 840 24.81 5.4 41.6 52 -3.6 25.5 0 0
21:09 1011 29.85 840 24.81 5.3 41.6 51 -4.1 24.7 0 0
21:10 1011 29.85 840 24.81 5.4 41.7 52 -3.7 25.4 0 0
21:11 1011 29.85 840 24.81 5.4 41.7 52 -3.7 25.3 0 0
21:12 1011 29.85 840 24.81 5.4 41.7 52 -3.6 25.5 0 0
21:13 1011 29.85 840 24.81 5.4 41.7 52 -3.6 25.4 0 0
21:14 1011 29.85 840 24.81 5.3 41.5 52 -3.7 25.3 0 0
21:15 1011 29.85 840 24.81 5.3 41.5 52 -3.8 25.1 0 0
21:16 1011 29.85 840 24.81 5.3 41.5 52 -3.9 25 0 0
21:17 1011 29.85 840 24.81 5.3 41.5 52 -3.9 25 0 0
21:18 1011 29.85 840 24.81 5.3 41.5 52 -3.7 25.4 0 0
21:19 1011 29.85 840 24.81 5.2 41.4 51 -4.1 24.7 0 0
21:20 1011 29.85 840 24.81 5.2 41.3 52 -3.9 25 0 0
21:21 1011 29.85 840 24.81 5.1 41.2 54 -3.5 25.7 0 0
21:22 1011 29.85 840 24.81 5 41 54 -3.6 25.5 0 0
21:23 1011 29.85 840 24.81 4.9 40.8 52 -4.1 24.6 0 0
21:24 1011 29.85 840 24.81 5 40.9 53 -3.9 24.9 0 0
21:25 1011 29.85 840 24.81 5 41.1 52 -3.9 24.9 0 0
21:26 1011 29.85 840 24.81 5 41.1 52 -4.1 24.6 0 0
21:27 1011 29.85 840 24.81 5.1 41.2 51 -4.1 24.6 0 0
21:28 1011 29.85 840 24.81 5.2 41.3 51 -4.1 24.7 0 0
21:29 1011 29.85 840 24.81 5.1 41.3 52 -3.8 25.1 0 0
21:30 1011 29.85 840 24.81 5.1 41.3 54 -3.4 25.8 0 0
21:31 1011 29.85 840 24.81 5 41.1 53 -3.9 25 0 0
21:32 1011 29.85 840 24.81 5 41 53 -3.9 25 0 0
21:33 1011 29.85 840 24.81 5.1 41.1 52 -4.1 24.6 0 0
21:34 1011 29.85 840 24.81 5.1 41.2 52 -4 24.8 0 0
21:35 1011 29.85 840 24.81 5.1 41.3 53 -3.8 25.2 0 0
21:36 1011 29.85 840 24.81 5.1 41.1 55 -3.3 26 0 0
21:37 1011 29.85 840 24.81 4.9 40.9 57 -3 26.7 0 0
21:38 1011 29.85 840 24.81 4.7 40.5 58 -2.8 27 0 0
21:39 1011 29.85 840 24.81 4.6 40.2 60 -2.5 27.6 0 0
21:40 1011 29.85 840 24.81 4.4 39.9 62 -2.3 27.9 0 0
21:41 1011 29.85 840 24.81 4.3 39.7 61 -2.5 27.4 0 0
21:42 1011 29.85 840 24.81 4.2 39.6 62 -2.4 27.7 0 0
21:43 1011 29.85 840 24.81 4.1 39.5 62 -2.5 27.5 0 0
21:44 1011 29.85 840 24.81 4.1 39.4 61 -2.6 27.2 0 0
21:45 1011 29.85 840 24.81 4.1 39.4 62 -2.6 27.4 0 0
21:46 1011 29.85 840 24.81 4 39.3 63 -2.4 27.7 0 0
21:47 1011 29.85 840 24.81 3.9 39.1 63 -2.4 27.6 0 0
21:48 1011 29.85 840 24.81 3.9 38.9 63 -2.5 27.6 0 0
21:49 1011 29.85 840 24.81 3.9 38.9 64 -2.4 27.8 0 0
21:50 1011 29.85 840 24.81 3.9 39 62 -2.8 26.9 0 0
21:51 1011 29.85 840 24.81 4 39.2 62 -2.7 27.2 0 0
21:52 1011 29.85 840 24.81 4.1 39.3 63 -2.4 27.8 0 0
21:53 1011 29.85 840 24.81 4.1 39.4 57 -3.7 25.4 0 0
21:54 1011 29.85 840 24.81 4.4 39.9 60 -2.8 26.9 0 0
21:55 1011 29.85 840 24.81 4.4 40 61 -2.4 27.7 0 0
21:56 1011 29.85 840 24.81 4.5 40 61 -2.5 27.5 0 0
21:57 1011 29.85 840 24.81 4.5 40.2 59 -2.7 27.1 0 0
21:58 1011 29.85 840 24.81 4.6 40.4 60 -2.4 27.7 0 0
21:59 1011 29.85 840 24.81 4.6 40.3 61 -2.2 28.1 0 0
22:00 1011 29.85 840 24.81 4.6 40.3 63 -1.8 28.7 0 0
22:01 1011 29.85 840 24.81 4.5 40.1 64 -1.7 29 0 0
22:02 1011 29.85 840 24.81 4.3 39.7 64 -1.9 28.6 0 0
22:03 1011 29.85 840 24.81 4.2 39.6 61 -2.7 27.2 0 0
22:04 1011 29.85 840 24.81 4.3 39.8 62 -2.3 27.8 0 0
22:05 1011 29.85 840 24.81 4.3 39.8 62 -2.3 27.9 0 0
22:06 1011 29.85 840 24.81 4.3 39.7 63 -2.1 28.1 0 0
22:07 1011 29.85 840 24.81 4.2 39.6 63 -2.2 28 0 0
22:08 1011 29.85 840 24.81 4.2 39.5 65 -1.9 28.6 0 0
22:09 1011 29.85 840 24.81 4.1 39.3 65 -2 28.4 0 0
22:10 1011 29.85 840 24.81 4 39.2 64 -2.2 28 0 0
22:11 1011 29.85 840 24.81 4.1 39.3 65 -1.9 28.6 0 0
22:12 1011 29.85 840 24.81 4 39.2 66 -1.8 28.7 0 0
22:13 1011 29.85 840 24.81 4 39.2 64 -2.2 28 0 0
22:14 1011 29.85 840 24.81 4 39.3 64 -2 28.3 0 0
22:15 1011 29.85 840 24.81 4 39.2 66 -1.7 28.9 0 0
22:16 1011 29.85 840 24.81 3.9 39 68 -1.6 29.2 0 0
22:17 1011 29.85 840 24.81 3.8 38.8 67 -1.9 28.6 0 0
22:18 1011 29.85 840 24.81 3.8 38.8 67 -1.8 28.7 0 0
22:19 1011 29.85 840 24.81 3.7 38.7 68 -1.7 29 0 0
22:20 1011 29.85 840 24.81 3.7 38.6 70 -1.4 29.5 0 0
22:21 1011 29.85 840 24.81 3.6 38.4 70 -1.4 29.5 0 0
22:22 1011 29.85 840 24.81 3.6 38.4 68 -1.7 28.9 0 0
22:23 1011 29.85 840 24.81 3.6 38.5 67 -2 28.3 0 0
22:24 1011 29.85 840 24.81 3.6 38.5 66 -2 28.3 0 0
22:25 1011 29.85 840 24.81 3.7 38.6 63 -2.7 27.1 0 0
22:26 1011 29.85 840 24.81 3.8 38.9 64 -2.4 27.6 0 0
22:27 1011 29.85 840 24.81 3.9 39.1 64 -2.3 27.9 0 0
22:28 1011 29.85 840 24.81 3.9 39.1 64 -2.3 27.9 0 0
22:29 1011 29.85 840 24.81 3.9 39.1 63 -2.4 27.7 0 0
22:30 1011 29.85 840 24.81 3.8 38.9 64 -2.4 27.7 0 0
22:31 1011 29.85 840 24.81 3.8 38.8 65 -2.2 28.1 0 0
22:32 1011 29.85 840 24.81 3.8 38.8 65 -2.1 28.2 0 0
22:33 1011 29.85 840 24.81 3.7 38.7 65 -2.2 28.1 0 0
22:34 1011 29.85 840 24.81 3.6 38.5 66 -2.1 28.3 0 0
22:35 1011 29.85 840 24.81 3.6 38.5 67 -2 28.3 0 0
22:36 1011 29.85 840 24.81 3.6 38.4 65 -2.4 27.8 0 0
22:37 1011 29.85 840 24.81 3.6 38.5 65 -2.3 27.9 0 0
22:38 1011 29.85 840 24.81 3.6 38.5 65 -2.4 27.7 0 0
22:39 1011 29.85 840 24.81 3.6 38.6 64 -2.6 27.3 0 0
22:40 1011 29.85 840 24.81 3.7 38.6 63 -2.6 27.2 0 0
22:41 1011 29.85 840 24.81 3.7 38.7 62 -3 26.6 0 0
22:42 1011 29.85 840 24.81 3.7 38.7 61 -3.1 26.4 0 0
22:43 1011 29.85 840 24.81 3.8 38.9 62 -2.9 26.8 0 0
22:44 1011 29.85 840 24.81 3.8 38.9 61 -2.9 26.7 0 0
22:45 1011 29.85 840 24.81 3.9 39 60 -3.1 26.4 0 0
22:46 1011 29.85 840 24.81 4 39.1 59 -3.4 25.9 0 0
22:47 1011 29.85 840 24.81 4 39.3 60 -3.1 26.5 0 0
22:48 1011 29.85 840 24.81 4 39.2 62 -2.7 27.2 0 0
22:49 1011 29.85 840 24.81 3.9 39.1 59 -3.3 26 0 0
22:50 1011 29.85 840 24.81 4 39.2 59 -3.3 26 0 0
22:51 1011 29.85 840 24.81 4.1 39.3 59 -3.3 26 0 0
22:52 1011 29.85 840 24.81 4.1 39.4 57 -3.7 25.4 0 0
22:53 1011 29.85 840 24.81 4.2 39.5 58 -3.4 25.8 0 0
22:54 1011 29.85 840 24.81 4.2 39.5 57 -3.6 25.6 0 0
22:55 1011 29.85 840 24.81 4.1 39.4 58 -3.3 26.1 0 0
22:56 1011 29.85 840 24.81 4.1 39.4 58 -3.4 25.9 0 0
22:57 1011 29.85 840 24.81 4.1 39.3 58 -3.5 25.8 0 0
22:58 1011 29.85 840 24.81 4.1 39.3 58 -3.3 26 0 0
22:59 1011 29.85 840 24.81 4 39.2 59 -3.3 26.1 0 0
23:00 1011 29.85 840 24.81 3.9 39 60 -3.2 26.2 0 0
23:01 1011 29.85 840 24.81 3.8 38.9 60 -3.2 26.3 0 0
23:02 1011 29.85 840 24.81 3.8 38.8 61 -3.2 26.3 0 0
23:03 1011 29.85 840 24.81 3.8 38.8 61 -3.1 26.4 0 0
23:04 1011 29.85 840 24.81 3.8 38.8 62 -2.9 26.9 0 0
23:05 1011 29.85 840 24.81 3.7 38.6 62 -3 26.6 0 0
23:06 1011 29.85 840 24.81 3.6 38.5 61 -3.3 26.1 0 0
23:07 1011 29.85 840 24.81 3.6 38.5 60 -3.3 26 0 0
23:08 1011 29.85 840 24.81 3.6 38.5 59 -3.7 25.3 0 0
23:09 1011 29.85 840 24.81 3.7 38.7 58 -3.7 25.3 0 0
23:10 1011 29.85 840 24.81 3.7 38.7 58 -3.8 25.2 0 0
23:11 1011 29.85 840 24.81 3.8 38.8 58 -3.9 25.1 0 0
23:12 1011 29.85 840 24.81 3.8 38.8 57 -4 24.9 0 0
23:13 1011 29.85 840 24.81 3.8 38.8 57 -3.9 24.9 0 0
23:14 1011 29.85 840 24.81 3.8 38.8 56 -4.1 24.6 0 0
23:15 1011 29.85 840 24.81 3.7 38.7 58 -3.7 25.4 0 0
23:16 1011 29.85 840 24.81 3.6 38.6 58 -3.8 25.1 0 0
23:17 1011 29.85 840 24.81 3.6 38.5 57 -4.1 24.7 0 0
23:18 1011 29.85 840 24.81 3.7 38.6 57 -4.1 24.6 0 0
23:19 1011 29.85 840 24.81 3.8 38.8 55 -4.5 23.9 0 0
23:20 1011 29.85 840 24.81 3.9 39 54 -4.7 23.6 0 0
23:21 1011 29.85 840 24.81 4 39.2 53 -4.8 23.4 0 0
23:22 1011 29.85 840 24.81 4.1 39.3 52 -4.9 23.2 0 0
23:23 1011 29.85 840 24.81 4.2 39.5 52 -4.7 23.5 0 0
23:24 1011 29.85 840 24.81 4.3 39.7 51 -4.9 23.2 0 0
23:25 1011 29.85 840 24.81 4.3 39.8 52 -4.6 23.7 0 0
23:26 1011 29.85 840 24.81 4.3 39.8 51 -4.8 23.4 0 0
23:27 1011 29.85 840 24.81 4.3 39.8 53 -4.5 24 0 0
23:28 1011 29.85 840 24.81 4.2 39.5 53 -4.6 23.7 0 0
23:29 1011 29.85 840 24.81 4 39.2 55 -4.2 24.4 0 0
23:30 1011 29.85 840 24.81 3.8 38.8 56 -4.1 24.6 0 0
23:31 1011 29.85 840 24.81 3.6 38.4 58 -3.9 25 0 0
23:32 1011 29.85 840 24.81 3.3 37.9 59 -3.8 25.1 0 0
23:33 1011 29.85 840 24.81 3 37.5 60 -4 24.8 0 0
23:34 1011 29.85 840 24.81 2.8 37.1 60 -4.1 24.6 0 0
23:35 1011 29.85 840 24.81 2.9 37.3 60 -4 24.8 0 0
23:36 1011 29.85 840 24.81 2.8 37.1 61 -4 24.8 0 0
23:37 1011 29.85 840 24.81 2.6 36.8 61 -4.1 24.6 0 0
23:38 1011 29.85 840 24.81 2.6 36.6 62 -4 24.7 0 0
23:39 1011 29.85 840 24.81 2.5 36.4 62 -4 24.8 0 0
23:40 1011 29.85 840 24.81 2.4 36.2 62 -4.1 24.6 0 0
23:41 1011 29.85 840 24.81 2.3 36.1 63 -4 24.9 0 0
23:42 1011 29.85 840 24.81 2.3 36.1 63 -4.1 24.7 0 0
23:43 1011 29.85 840 24.81 2.3 36.1 63 -4 24.9 0 0
23:44 1011 29.85 840 24.81 2.3 36.2 63 -4 24.8 0 0
23:45 1011 29.85 840 24.81 2.4 36.3 62 -4.2 24.4 0 0
23:46 1011 29.85 840 24.81 2.5 36.5 62 -4.1 24.7 0 0
23:47 1011 29.85 840 24.81 2.6 36.7 62 -3.9 24.9 0 0
23:48 1011 29.85 840 24.81 2.6 36.7 61 -4 24.7 0 0
23:49 1011 29.85 840 24.81 2.8 37 60 -4.2 24.5 0 0
23:50 1011 29.85 840 24.81 2.9 37.2 60 -4.1 24.6 0 0
23:51 1011 29.85 840 24.81 2.9 37.2 59 -4.4 24.2 0 0
23:52 1011 29.85 840 24.81 3 37.4 59 -4.2 24.4 0 0
23:53 1011 29.85 840 24.81 3 37.5 60 -4 24.7 0 0
23:54 1011 29.85 840 24.81 3 37.4 59 -4.1 24.6 0 0
23:55 1011 29.85 840 24.81 3 37.4 59 -4.3 24.3 0 0
23:56 1011 29.85 840 24.81 3.1 37.6 58 -4.5 24 0 0
23:57 1011 29.85 840 24.81 3.2 37.7 58 -4.3 24.2 0 0
23:58 1011 29.85 840 24.81 3.2 37.8 57 -4.5 24 0 0
23:59 1011 29.85 840 24.81 3.2 37.8 58 -4.3 24.2 0 0
24:00 1011 29.85 840 24.81 3.2 37.8 57 -4.5 24 0 0